Flight Track Log - Related Links

Times and Time Zones

All times are in EDT time to prevent confusion due to time zone crossing. See the AFL150 flight status page for this flight to view local times or setup timezone preferences in your user account.

Time Position Orientation Groundspeed Altitude Reporting Facility
EDT Latitude Longitude Course Direction KTS MPH feet Rate Location/Type
Sat 06:20:36 AM 55.9650 37.3670 258° West 175 201 1,900  Level FlightAware ADS-B
Sat 06:21:06 AM 55.9590 37.3230 256° West 186 214 2,800 1,300 Climbing FlightAware ADS-B
Sat 06:21:36 AM 55.9510 37.2750 253° West 220 253 3,200 982 Climbing FlightAware ADS-B
Sat 06:22:01 AM 55.9440 37.2260 256° West 250 288 3,700 1,714 Climbing FlightAware ADS-B
Sat 06:22:46 AM 55.9510 37.1310 278° West 271 312 5,200 2,229 Climbing FlightAware ADS-B
Sat 06:23:11 AM 55.9580 37.0790 284° West 272 313 6,300 2,618 Climbing FlightAware ADS-B
Sat 06:23:41 AM 55.9640 37.0110 279° West 274 315 7,600 2,509 Climbing FlightAware ADS-B
Sat 06:24:06 AM 55.9690 36.9560 279° West 281 323 8,600 2,400 Climbing FlightAware ADS-B
Sat 06:24:26 AM 55.9740 36.9080 281° West 285 328 9,400 2,308 Climbing FlightAware ADS-B
Sat 06:25:11 AM 55.9840 36.8020 280° West 294 338 11,100 1,765 Climbing FlightAware ADS-B
Sat 06:25:51 AM 56.0090 36.7150 297° West 323 372 11,900 1,120 Climbing FlightAware ADS-B
Sat 06:26:26 AM 56.0360 36.6240 298° West 356 410 12,500 1,500 Climbing FlightAware ADS-B
Sat 06:27:11 AM 56.0700 36.5070 298° West 370 426 13,900 1,976 Climbing FlightAware ADS-B
Sat 06:27:51 AM 56.1030 36.3930 297° West 381 438 15,300 2,188 Climbing FlightAware ADS-B
Sat 06:28:36 AM 56.1390 36.2680 297° West 383 441 17,000 2,118 Climbing FlightAware ADS-B
Sat 06:29:16 AM 56.1720 36.1540 298° West 392 451 18,300 1,725 Climbing FlightAware ADS-B
Sat 06:29:56 AM 56.2060 36.0350 297° West 407 468 19,300 1,694 Climbing FlightAware ADS-B
Sat 06:30:41 AM 56.2450 35.8990 297° West 413 475 20,700 1,733 Climbing FlightAware ADS-B
Sat 06:31:26 AM 56.2850 35.7600 297° West 420 483 21,900 1,553 Climbing FlightAware ADS-B
Sat 06:32:06 AM 56.3200 35.6360 297° West 428 493 22,900 1,425 Climbing FlightAware ADS-B
Sat 06:32:46 AM 56.3580 35.5070 298° West 434 499 23,800 1,275 Climbing FlightAware ADS-B
Sat 06:33:26 AM 56.4150 35.4130 318° Northwest 434 499 24,600 1,200 Climbing FlightAware ADS-B
Sat 06:34:11 AM 56.5020 35.3610 342° North 439 505 25,500 1,129 Climbing FlightAware ADS-B
Sat 06:34:51 AM 56.5790 35.3150 342° North 446 513 26,200 1,125 Climbing FlightAware ADS-B
Sat 06:35:31 AM 56.6590 35.2690 342° North 452 520 27,000 1,125 Climbing FlightAware ADS-B
Sat 06:36:11 AM 56.7380 35.2230 342° North 458 527 27,700 1,000 Climbing FlightAware ADS-B
Sat 06:37:01 AM 56.8410 35.1630 342° North 465 535 28,500 1,000 Climbing FlightAware ADS-B
Sat 06:37:41 AM 56.9220 35.1150 342° North 470 541 29,200 1,200 Climbing FlightAware ADS-B
Sat 06:38:26 AM 57.0140 35.0610 342° North 466 536 30,200 1,271 Climbing FlightAware ADS-B
Sat 06:39:06 AM 57.0970 35.0110 342° North 463 533 31,000 1,200 Climbing FlightAware ADS-B
Sat 06:39:46 AM 57.1740 34.9650 342° North 462 532 31,800 988 Climbing FlightAware ADS-B
Sat 06:40:31 AM 57.2690 34.9090 342° North 466 536 32,400 706 Climbing FlightAware ADS-B
Sat 06:41:11 AM 57.3520 34.8580 342° North 471 542 32,800 750 Climbing FlightAware ADS-B
Sat 06:41:51 AM 57.4350 34.8080 342° North 472 543 33,400 847 Climbing FlightAware ADS-B
Sat 06:42:36 AM 57.5280 34.7510 342° North 474 545 34,000 424 Climbing FlightAware ADS-B
Sat 06:43:16 AM 57.6130 34.7000 342° North 477 549 34,000  Level FlightAware ADS-B
Sat 06:44:01 AM 57.7040 34.6430 341° North 475 547 34,000  Level FlightAware ADS-B
Sat 06:44:41 AM 57.7890 34.5910 342° North 473 544 34,000  Level FlightAware ADS-B
Sat 06:45:21 AM 57.8690 34.5410 342° North 473 544 34,000  Level FlightAware ADS-B
Sat 06:46:06 AM 57.9640 34.4820 342° North 472 543 34,000  Level FlightAware ADS-B
Sat 06:46:46 AM 58.0480 34.4300 342° North 473 544 34,000  Level FlightAware ADS-B
Sat 06:47:26 AM 58.1270 34.3630 336° Northwest 473 544 34,000  Level FlightAware ADS-B
Sat 06:48:11 AM 58.2100 34.2660 328° Northwest 472 543 34,000  Level FlightAware ADS-B
Sat 06:48:46 AM 58.2700 34.1770 322° Northwest 472 543 34,000  Level FlightAware ADS-B
Sat 06:49:26 AM 58.3390 34.0750 322° Northwest 472 543 34,000  Level FlightAware ADS-B
Sat 06:50:11 AM 58.4080 33.9710 322° Northwest 472 543 34,000  Level FlightAware ADS-B
Sat 06:51:01 AM 58.4920 33.8400 321° Northwest 471 542 34,000  Level FlightAware ADS-B
Sat 06:51:49 AM 58.5610 33.7330 321° Northwest 471 542 34,000  Level FlightAware ADS-B
Sat 06:52:26 AM 58.6150 33.6500 321° Northwest 471 542 34,000  Level FlightAware ADS-B
Sat 06:53:14 AM 58.6840 33.5420 321° Northwest 471 542 34,000  Level FlightAware ADS-B
Sat 06:53:50 AM 58.7360 33.4620 321° Northwest 471 542 34,000  Level FlightAware ADS-B
Sat 06:54:37 AM 58.8030 33.3560 321° Northwest 471 542 34,000  Level FlightAware ADS-B
Sat 06:55:26 AM 58.8740 33.2460 321° Northwest 471 542 34,000  Level FlightAware ADS-B
Sat 06:56:03 AM 58.9270 33.1620 321° Northwest 471 542 34,000  Level FlightAware ADS-B
Sat 06:56:39 AM 58.9790 33.0810 321° Northwest 471 542 34,000  Level FlightAware ADS-B
Sat 06:57:36 AM 59.1230 32.7050 307° West 467 537 34,000  Level FlightAware ADS-B
Sat 06:58:16 AM 59.1860 32.5810 315° West 468 539 34,000  Level FlightAware ADS-B
Sat 06:59:01 AM 59.2530 32.4460 314° West 469 540 34,000  Level FlightAware ADS-B
Sat 06:59:46 AM 59.3200 32.3120 314° West 467 537 34,000  Level FlightAware ADS-B
Sat 07:00:27 AM 59.3810 32.1880 314° West 466 536 34,000  Level FlightAware ADS-B
Sat 07:01:11 AM 59.4390 32.0400 308° West 463 533 34,000  Level FlightAware ADS-B
Sat 07:01:51 AM 59.4800 31.9000 300° West 460 529 34,000  Level FlightAware ADS-B
Sat 07:02:31 AM 59.5160 31.7410 294° West 461 531 34,000  Level FlightAware ADS-B
Sat 07:03:11 AM 59.5490 31.5920 294° West 460 529 34,000  Level FlightAware ADS-B
Sat 07:03:57 AM 59.5880 31.4150 294° West 459 528 34,000  Level FlightAware ADS-B
Sat 07:04:36 AM 59.6210 31.2600 293° West 459 528 34,000  Level FlightAware ADS-B
Sat 07:05:16 AM 59.6540 31.1050 293° West 460 529 34,000  Level FlightAware ADS-B
Sat 07:06:01 AM 59.6900 30.9360 293° West 460 529 34,000  Level FlightAware ADS-B
Sat 07:06:41 AM 59.7230 30.7790 293° West 458 527 34,000  Level FlightAware ADS-B
Sat 07:07:26 AM 59.7570 30.6030 291° West 455 524 34,000  Level FlightAware ADS-B
Sat 07:08:11 AM 59.7790 30.4220 284° West 452 520 34,000  Level FlightAware ADS-B
Sat 07:08:41 AM 59.7860 30.2980 276° West 452 520 34,000  Level FlightAware ADS-B
Sat 07:09:28 AM 59.7830 30.1120 268° West 450 518 34,000  Level FlightAware ADS-B
Sat 07:10:07 AM 59.7680 29.9610 259° West 451 519 34,000  Level FlightAware ADS-B
Sat 07:10:42 AM 59.7500 29.8120 257° West 451 519 34,000  Level FlightAware ADS-B
Sat 07:11:23 AM 59.7290 29.6470 256° West 450 518 34,000  Level FlightAware ADS-B
Sat 07:12:02 AM 59.7130 29.5300 255° West 450 518 34,000  Level FlightAware ADS-B
Sat 07:12:49 AM 59.6850 29.3130 256° West 451 519 34,000  Level FlightAware ADS-B
Sat 07:13:25 AM 59.6650 29.1630 255° West 452 520 34,000  Level FlightAware ADS-B
Sat 07:14:10 AM 59.6430 28.9910 256° West 453 521 34,000  Level FlightAware ADS-B
Sat 07:14:55 AM 59.6310 28.8020 263° West 447 514 34,000  Level FlightAware ADS-B
Sat 07:15:30 AM 59.6340 28.6730 273° West 444 511 34,000  Level FlightAware ADS-B
Sat 07:16:10 AM 59.6530 28.5000 282° West 441 507 34,000  Level FlightAware ADS-B
Sat 07:16:55 AM 59.6790 28.3250 286° West 442 509 34,000  Level FlightAware ADS-B
Sat 07:17:26 AM 59.6950 28.2060 285° West 442 509 34,000  Level FlightAware ADS-B
Sat 07:18:11 AM 59.7200 28.0330 286° West 443 510 34,000  Level FlightAware ADS-B
Sat 07:18:52 AM 59.7420 27.8740 285° West 443 510 34,000  Level FlightAware ADS-B
Sat 07:19:33 AM 59.7650 27.7100 286° West 442 509 34,000  Level FlightAware ADS-B
Sat 07:20:18 AM 59.7880 27.5460 286° West 442 509 34,000  Level FlightAware ADS-B
Sat 07:20:59 AM 59.8100 27.3820 285° West 442 509 34,000  Level FlightAware ADS-B
Sat 07:21:39 AM 59.8320 27.2230 285° West 439 505 34,000  Level FlightAware ADS-B
Sat 07:22:24 AM 59.8550 27.0440 284° West 436 502 34,000  Level FlightAware ADS-B
Sat 07:23:05 AM 59.8760 26.8890 285° West 431 496 34,000  Level FlightAware ADS-B
Sat 07:23:45 AM 59.8960 26.7350 285° West 429 494 34,000  Level FlightAware ADS-B
Sat 07:24:31 AM 59.9180 26.5650 285° West 428 493 34,000  Level FlightAware ADS-B
Sat 07:25:06 AM 59.9360 26.4250 284° West 428 493 34,000  Level FlightAware ADS-B
Sat 07:25:52 AM 59.9650 26.2590 289° West 425 489 34,000  Level FlightAware ADS-B
Sat 07:26:33 AM 60.0010 26.1270 299° West 422 486 34,000  Level FlightAware ADS-B
Sat 07:27:18 AM 60.0520 25.9680 303° West 422 486 34,000  Level FlightAware ADS-B
Sat 07:27:54 AM 60.0850 25.8560 301° West 422 486 34,000  Level FlightAware ADS-B
Sat 07:28:39 AM 60.1300 25.7080 301° West 421 484 34,000  Level FlightAware ADS-B
Sat 07:29:19 AM 60.1730 25.5640 301° West 420 483 34,000  Level FlightAware ADS-B
Sat 07:30:00 AM 60.2140 25.4260 301° West 420 483 34,000  Level FlightAware ADS-B
Sat 07:30:41 AM 60.2520 25.3010 302° West 421 484 34,000  Level FlightAware ADS-B
Sat 07:31:20 AM 60.2930 25.1610 301° West 421 484 34,000  Level FlightAware ADS-B
Sat 07:31:56 AM 60.3300 25.0370 301° West 421 484 34,000  Level FlightAware ADS-B
Sat 07:32:36 AM 60.3690 24.9030 301° West 423 487 34,000  Level FlightAware ADS-B
Sat 07:33:18 AM 60.4100 24.7620 301° West 424 488 34,000  Level FlightAware ADS-B
Sat 07:34:03 AM 60.4530 24.6120 300° West 423 487 34,000  Level FlightAware ADS-B
Sat 07:34:43 AM 60.4930 24.4730 300° West 423 487 34,000  Level FlightAware ADS-B
Sat 07:35:23 AM 60.5330 24.3340 300° West 421 484 34,000  Level FlightAware ADS-B
Sat 07:36:08 AM 60.5760 24.1820 300° West 418 481 34,000  Level FlightAware ADS-B
Sat 07:36:43 AM 60.6090 24.0660 300° West 417 480 34,000 320 Level FlightAware ADS-B
Sat 07:37:23 AM 60.6480 23.9270 300° West 417 480 34,400 750 Climbing FlightAware ADS-B
Sat 07:38:11 AM 60.6950 23.7580 300° West 418 481 35,100 675 Climbing FlightAware ADS-B
Sat 07:38:43 AM 60.7250 23.6490 299° West 424 488 35,300 395 Climbing FlightAware ADS-B
Sat 07:39:27 AM 60.7650 23.4900 297° West 428 493 35,600 357 Climbing FlightAware ADS-B
Sat 07:40:07 AM 60.7990 23.3460 296° West 435 501 35,800 286 Climbing FlightAware ADS-B
Sat 07:40:51 AM 60.8390 23.1820 297° West 440 506 36,000 143 Climbing FlightAware ADS-B
Sat 07:41:31 AM 60.8760 23.0300 297° West 437 503 36,000  Level FlightAware ADS-B
Sat 07:42:13 AM 60.9130 22.8780 297° West 436 502 36,000  Level FlightAware ADS-B
Sat 07:42:57 AM 60.9520 22.7140 296° West 434 499 36,000  Level FlightAware ADS-B
Sat 07:43:45 AM 60.9940 22.5360 296° West 433 498 36,000  Level FlightAware ADS-B
Sat 07:44:27 AM 61.0310 22.3800 296° West 432 497 36,000  Level FlightAware ADS-B
Sat 07:45:07 AM 61.0650 22.2340 296° West 431 496 36,000  Level FlightAware ADS-B
Sat 07:45:43 AM 61.0940 22.1070 295° West 430 495 36,000  Level FlightAware ADS-B
Sat 07:46:23 AM 61.1290 21.9550 296° West 430 495 36,000  Level FlightAware ADS-B
Sat 07:47:08 AM 61.1680 21.7860 296° West 433 498 36,000  Level FlightAware ADS-B
Sat 07:47:45 AM 61.2000 21.6470 296° West 435 501 36,000  Level FlightAware ADS-B
Sat 07:48:26 AM 61.2340 21.4920 295° West 436 502 36,000  Level FlightAware ADS-B
Sat 07:49:09 AM 61.2710 21.3290 295° West 437 503 36,000  Level FlightAware ADS-B
Sat 07:49:49 AM 61.3040 21.1790 295° West 440 506 36,000  Level FlightAware ADS-B
Sat 07:50:31 AM 61.3410 21.0130 295° West 440 506 36,000  Level FlightAware ADS-B
Sat 07:51:15 AM 61.3770 20.8510 295° West 442 509 36,000  Level FlightAware ADS-B
Sat 07:51:56 AM 61.4120 20.6860 294° West 442 509 36,000  Level FlightAware ADS-B
Sat 07:52:37 AM 61.4470 20.5260 295° West 440 506 36,000  Level FlightAware ADS-B
Sat 07:53:20 AM 61.4830 20.3580 294° West 440 506 36,000  Level FlightAware ADS-B
Sat 07:54:00 AM 61.5130 20.2170 294° West 439 505 36,000  Level FlightAware ADS-B
Sat 07:54:45 AM 61.5520 20.0310 294° West 441 507 36,000  Level FlightAware ADS-B
Sat 07:55:29 AM 61.5860 19.8660 293° West 442 509 36,000  Level FlightAware ADS-B
Sat 07:56:09 AM 61.6200 19.7020 294° West 442 509 36,000  Level FlightAware ADS-B
Sat 07:56:45 AM 61.6490 19.5620 294° West 442 509 36,000  Level FlightAware ADS-B
Sat 07:57:33 AM 61.6870 19.3740 293° West 440 506 36,000  Level FlightAware ADS-B
Sat 07:58:14 AM 61.7190 19.2160 293° West 440 506 36,000  Level FlightAware ADS-B
Sat 07:58:55 AM 61.7530 19.0480 293° West 439 505 36,000  Level FlightAware ADS-B
Sat 07:59:39 AM 61.7880 18.8740 293° West 439 505 36,000  Level FlightAware ADS-B
Sat 08:00:19 AM 61.8190 18.7160 293° West 439 505 36,000  Level FlightAware ADS-B
Sat 08:01:03 AM 61.8530 18.5390 292° West 440 506 36,000  Level FlightAware ADS-B
Sat 08:01:44 AM 61.8840 18.3810 293° West 441 507 36,000  Level FlightAware ADS-B
Sat 08:02:27 AM 61.9170 18.2120 293° West 442 509 36,000  Level FlightAware ADS-B
Sat 08:03:09 AM 61.9500 18.0390 292° West 443 510 36,000  Level FlightAware ADS-B
Sat 08:03:49 AM 61.9800 17.8790 292° West 444 511 36,000  Level FlightAware ADS-B
Sat 08:04:34 AM 62.0150 17.6930 292° West 445 512 36,000  Level FlightAware ADS-B
Sat 08:05:14 AM 62.0450 17.5290 291° West 446 513 36,000  Level FlightAware ADS-B
Sat 08:06:07 AM 62.0850 17.3140 292° West 447 514 36,000  Level FlightAware ADS-B
Sat 08:06:53 AM 62.1150 17.1470 291° West 447 514 36,000  Level FlightAware ADS-B
Sat 08:07:34 AM 62.1490 16.9580 291° West 447 514 36,000  Level FlightAware ADS-B
Sat 08:08:17 AM 62.1820 16.7760 291° West 450 518 36,000  Level FlightAware ADS-B
Sat 08:08:53 AM 62.2080 16.6280 291° West 451 519 36,000  Level FlightAware ADS-B
Sat 08:09:40 AM 62.2420 16.4350 291° West 452 520 36,000  Level FlightAware ADS-B
Sat 08:10:20 AM 62.2720 16.2660 291° West 452 520 36,000  Level FlightAware ADS-B
Sat 08:11:00 AM 62.2990 16.0950 289° West 449 517 36,000  Level FlightAware ADS-B
Sat 08:11:48 AM 62.3120 15.8840 278° West 449 517 36,000  Level FlightAware ADS-B
Sat 08:12:28 AM 62.3200 15.7150 276° West 450 518 36,000  Level FlightAware ADS-B
Sat 08:13:06 AM 62.3290 15.5410 276° West 452 520 36,000  Level FlightAware ADS-B
Sat 08:13:54 AM 62.3390 15.3250 276° West 452 520 36,000  Level FlightAware ADS-B
Sat 08:14:34 AM 62.3470 15.1460 276° West 452 520 36,000  Level FlightAware ADS-B
Sat 08:15:18 AM 62.3550 14.9490 275° West 452 520 36,000  Level FlightAware ADS-B
Sat 08:16:00 AM 62.3680 14.7710 279° West 454 522 36,000  Level FlightAware ADS-B
Sat 08:16:40 AM 62.3900 14.5900 285° West 454 522 36,000  Level FlightAware ADS-B
Sat 08:17:20 AM 62.4110 14.4130 284° West 454 522 36,000  Level FlightAware ADS-B
Sat 08:18:00 AM 62.4300 14.2370 283° West 455 524 36,000  Level FlightAware ADS-B
Sat 08:18:40 AM 62.4490 14.0630 283° West 454 522 36,000  Level FlightAware ADS-B
Sat 08:19:20 AM 62.4680 13.8860 283° West 454 522 36,000  Level FlightAware ADS-B
Sat 08:20:04 AM 62.4880 13.6900 283° West 457 526 36,000  Level FlightAware ADS-B
Sat 08:20:48 AM 62.5050 13.4940 281° West 457 526 36,000  Level FlightAware ADS-B
Sat 08:21:30 AM 62.5200 13.3010 280° West 457 526 36,000  Level FlightAware ADS-B
Sat 08:22:08 AM 62.5330 13.1300 279° West 459 528 36,000  Level FlightAware ADS-B
Sat 08:22:46 AM 62.5470 12.9590 280° West 460 529 36,000  Level FlightAware ADS-B
Sat 08:23:28 AM 62.5620 12.7690 280° West 460 529 36,000  Level FlightAware ADS-B
Sat 08:24:08 AM 62.5750 12.5910 279° West 460 529 36,000  Level FlightAware ADS-B
Sat 08:24:44 AM 62.5870 12.4270 279° West 460 529 36,000  Level FlightAware ADS-B
Sat 08:25:26 AM 62.6020 12.2330 280° West 459 528 36,000  Level FlightAware ADS-B
Sat 08:26:10 AM 62.6200 12.0390 281° West 458 527 36,000  Level FlightAware ADS-B
Sat 08:26:50 AM 62.6400 11.8610 284° West 458 527 36,000  Level FlightAware ADS-B
Sat 08:27:34 AM 62.6630 11.6620 284° West 460 529 36,000  Level FlightAware ADS-B
Sat 08:28:14 AM 62.6830 11.4820 284° West 460 529 36,000  Level FlightAware ADS-B
Sat 08:28:52 AM 62.7010 11.3110 283° West 460 529 36,000  Level FlightAware ADS-B
Sat 08:29:30 AM 62.7200 11.1430 284° West 462 532 36,000  Level FlightAware ADS-B
Sat 08:30:14 AM 62.7430 10.9400 284° West 462 532 36,000  Level FlightAware ADS-B
Sat 08:30:52 AM 62.7610 10.7700 283° West 463 533 36,000  Level FlightAware ADS-B
Sat 08:31:30 AM 62.7790 10.5970 283° West 463 533 36,000  Level FlightAware ADS-B
Sat 08:32:11 AM 62.7990 10.4140 284° West 464 534 36,000  Level FlightAware ADS-B
Sat 08:32:52 AM 62.8210 10.2300 285° West 461 531 36,000  Level FlightAware ADS-B
Sat 08:33:34 AM 62.8690 10.0670 303° West 464 534 36,000  Level FlightAware ADS-B
Sat 08:34:18 AM 62.9350 9.9140 314° West 472 543 36,000  Level FlightAware ADS-B
Sat 08:34:59 AM 62.9950 9.7760 314° West 469 540 36,000  Level FlightAware ADS-B
Sat 08:35:43 AM 63.0630 9.6180 314° West 470 541 36,000  Level FlightAware ADS-B
Sat 08:36:24 AM 63.1210 9.4800 313° West 467 537 36,000  Level FlightAware ADS-B
Sat 08:37:04 AM 63.1660 9.3120 301° West 460 529 36,000  Level FlightAware ADS-B
Sat 08:37:48 AM 63.1890 9.1200 285° West 458 527 36,000  Level FlightAware ADS-B
Sat 08:38:29 AM 63.2120 8.9360 286° West 461 531 36,000  Level FlightAware ADS-B
Sat 08:39:13 AM 63.2370 8.7310 285° West 461 531 36,000  Level FlightAware ADS-B
Sat 08:39:53 AM 63.2590 8.5450 285° West 463 533 36,000  Level FlightAware ADS-B
Sat 08:40:37 AM 63.2840 8.3400 285° West 465 535 36,000  Level FlightAware ADS-B
Sat 08:41:15 AM 63.3040 8.1660 284° West 468 539 36,000  Level FlightAware ADS-B
Sat 08:41:43 AM 63.3190 8.0350 284° West 468 539 36,000  Level FlightAware ADS-B
Sat 08:42:44 AM 63.3520 7.7510 285° West 467 537 36,000  Level FlightAware ADS-B
Sat 08:43:24 AM 63.3720 7.5680 284° West 466 536 36,000  Level FlightAware ADS-B
Sat 08:44:12 AM 63.3980 7.3410 284° West 466 536 36,000  Level FlightAware ADS-B
Sat 08:45:06 AM 63.4250 7.0900 284° West 464 534 36,000  Level FlightAware ADS-B
Sat 08:45:42 AM 63.4420 6.9260 283° West 463 533 36,000  Level FlightAware ADS-B
Sat 08:46:26 AM 63.4640 6.7150 283° West 464 534 36,000  Level FlightAware ADS-B
Sat 08:47:11 AM 63.4860 6.5070 283° West 464 534 36,000  Level FlightAware ADS-B
Sat 08:47:51 AM 63.5060 6.3180 283° West 466 536 36,000  Level FlightAware ADS-B
Sat 08:48:35 AM 63.5270 6.1100 283° West 468 539 36,000  Level FlightAware ADS-B
Sat 08:49:15 AM 63.5460 5.9170 283° West 473 544 36,000  Level FlightAware ADS-B
Sat 08:49:55 AM 63.5640 5.7290 282° West 472 543 36,000  Level FlightAware ADS-B
Sat 08:50:40 AM 63.5820 5.5460 283° West 472 543 36,000  Level FlightAware ADS-B
Sat 08:51:44 AM 63.6140 5.2100 282° West 471 542 36,000  Level FlightAware ADS-B
Sat 08:52:24 AM 63.6320 5.0170 282° West 472 543 36,000  Level FlightAware ADS-B
Sat 08:53:08 AM 63.6510 4.8100 282° West 472 543 36,000  Level FlightAware ADS-B
Sat 08:53:44 AM 63.6670 4.6330 282° West 471 542 36,000  Level FlightAware ADS-B
Sat 08:54:24 AM 63.6830 4.4490 281° West 471 542 36,000  Level FlightAware ADS-B
Sat 08:55:04 AM 63.7000 4.2550 281° West 470 541 36,000  Level FlightAware ADS-B
Sat 08:55:36 AM 63.7100 4.1250 280° West 470 541 36,000  Level FlightAware ADS-B
Sat 08:56:40 AM 63.7360 3.8030 280° West 471 542 36,000  Level FlightAware ADS-B
Sat 08:57:32 AM 63.7570 3.5590 281° West 472 543 36,000  Level FlightAware ADS-B
Sat 08:58:20 AM 63.7710 3.3600 279° West 472 543 36,000  Level FlightAware ADS-B
Sat 08:58:56 AM 63.7810 3.2100 279° West 472 543 36,000  Level FlightAware ADS-B
Sat 08:59:57 AM 63.7990 2.9570 279° West 472 543 36,000  Level FlightAware ADS-B
Sat 09:00:27 AM 63.8070 2.8330 278° West 472 543 36,000  Level FlightAware ADS-B
Sat 09:01:13 AM 63.8210 2.6410 279° West 472 543 36,000  Level FlightAware ADS-B
Sat 09:01:49 AM 63.8310 2.4920 279° West 472 543 36,000  Level FlightAware ADS-B
Sat 09:02:37 AM 63.8450 2.2920 279° West 472 543 36,000  Level FlightAware ADS-B
Sat 09:03:20 AM 63.8570 2.1130 279° West 472 543 36,000  Level FlightAware ADS-B
Sat 09:03:56 AM 63.8680 1.9630 280° West 472 543 36,000  Level FlightAware ADS-B
Sat 09:04:46 AM 63.8820 1.7550 279° West 472 543 36,000  Level FlightAware ADS-B
Sat 09:05:23 AM 63.8930 1.6010 279° West 472 543 36,000  Level FlightAware ADS-B
Sat 09:06:11 AM 63.9070 1.4010 279° West 472 543 36,000  Level FlightAware ADS-B
Sat 09:06:47 AM 63.9170 1.2510 279° West 472 543 36,000  Level FlightAware ADS-B
Sat 09:09:00 AM 63.9379 0.6814 275° West  Level Estimated
Sat 09:09:24 AM 63.9980 0.0490 275° West 479 551 36,000  Level FlightAware ADS-B
Sat 09:10:07 AM 64.0070 -0.1630 276° West 479 551 36,000  Level FlightAware ADS-B
Sat 09:10:47 AM 64.0130 -0.3660 274° West 480 552 36,000  Level FlightAware ADS-B
Sat 09:11:33 AM 64.0200 -0.5960 274° West 480 552 36,000  Level FlightAware ADS-B
Sat 09:12:12 AM 64.0240 -0.7360 274° West 480 552 36,000  Level FlightAware ADS-B
Sat 09:12:53 AM 64.0310 -0.9990 274° West 479 551 36,000  Level FlightAware ADS-B
Sat 09:13:29 AM 64.0360 -1.1830 274° West 479 551 36,000  Level FlightAware ADS-B
Sat 09:14:25 AM 64.0420 -1.4450 273° West 480 552 36,000  Level FlightAware ADS-B
Sat 09:15:08 AM 64.0490 -1.6860 274° West 484 557 36,000  Level FlightAware ADS-B
Sat 09:15:52 AM 64.0530 -1.9080 272° West 486 559 36,000  Level FlightAware ADS-B
Sat 09:16:31 AM 64.0580 -2.1050 273° West 486 559 36,000  Level FlightAware ADS-B
Sat 09:17:15 AM 64.0620 -2.3290 272° West 486 559 36,000  Level FlightAware ADS-B
Sat 09:17:55 AM 64.0650 -2.5340 272° West 485 558 36,000  Level FlightAware ADS-B
Sat 09:18:37 AM 64.0680 -2.7230 272° West 484 557 36,000  Level FlightAware ADS-B
Sat 09:19:19 AM 64.0720 -2.9610 272° West 484 557 36,000  Level FlightAware ADS-B
Sat 09:20:14 AM 64.0740 -3.2040 271° West 485 558 36,000  Level FlightAware ADS-B
Sat 09:20:54 AM 64.0780 -3.4510 272° West 484 557 36,000  Level FlightAware ADS-B
Sat 09:21:41 AM 64.0800 -3.6890 271° West 486 559 36,000  Level FlightAware ADS-B
Sat 09:22:17 AM 64.0820 -3.8730 272° West 487 560 36,000  Level FlightAware ADS-B
Sat 09:23:06 AM 64.0840 -4.1250 271° West 489 563 36,000  Level FlightAware ADS-B
Sat 09:23:45 AM 64.0850 -4.3270 271° West 489 563 36,000  Level FlightAware ADS-B
Sat 09:24:26 AM 64.0860 -4.5380 271° West 489 563 36,000  Level FlightAware ADS-B
Sat 09:25:09 AM 64.0860 -4.7530 270° West 491 565 36,000  Level FlightAware ADS-B
Sat 09:25:45 AM 64.0860 -4.9420 270° West 489 563 36,000  Level FlightAware ADS-B
Sat 09:26:25 AM 64.0860 -5.1480 270° West 486 559 36,000  Level FlightAware ADS-B
Sat 09:27:07 AM 64.0860 -5.3640 270° West 484 557 36,000  Level FlightAware ADS-B
Sat 09:27:43 AM 64.0850 -5.5460 269° West 485 558 36,000  Level FlightAware ADS-B
Sat 09:28:22 AM 64.0840 -5.7470 269° West 486 559 36,000  Level FlightAware ADS-B
Sat 09:29:07 AM 64.0830 -5.9760 270° West 487 560 36,000  Level FlightAware ADS-B
Sat 09:29:51 AM 64.0810 -6.2040 269° West 489 563 36,000  Level FlightAware ADS-B
Sat 09:30:32 AM 64.0800 -6.4050 269° West 489 563 36,000  Level FlightAware ADS-B
Sat 09:31:15 AM 64.0770 -6.6350 268° West 489 563 36,000  Level FlightAware ADS-B
Sat 09:31:55 AM 64.0750 -6.8420 269° West 489 563 36,000  Level FlightAware ADS-B
Sat 09:32:39 AM 64.0720 -7.0680 268° West 490 564 36,000  Level FlightAware ADS-B
Sat 09:33:20 AM 64.0680 -7.2770 268° West 492 566 36,000  Level FlightAware ADS-B
Sat 09:34:03 AM 64.0650 -7.4980 268° West 493 567 36,000  Level FlightAware ADS-B
Sat 09:34:45 AM 64.0610 -7.6900 267° West 493 567 36,000  Level FlightAware ADS-B
Sat 09:35:21 AM 64.0570 -7.8490 267° West 493 567 36,000  Level FlightAware ADS-B
Sat 09:36:01 AM 64.0530 -8.0910 268° West 492 566 36,000  Level FlightAware ADS-B
Sat 09:36:49 AM 64.0480 -8.3030 267° West 492 566 36,000  Level FlightAware ADS-B
Sat 09:37:25 AM 64.0450 -8.4620 268° West 492 566 36,000  Level FlightAware ADS-B
Sat 09:38:13 AM 64.0400 -8.6740 267° West 492 566 36,000  Level FlightAware ADS-B
Sat 09:38:49 AM 64.0360 -8.8330 267° West 492 566 36,000  Level FlightAware ADS-B
Sat 09:39:37 AM 64.0310 -9.0450 267° West 492 566 36,000  Level FlightAware ADS-B
Sat 09:40:15 AM 64.0270 -9.2130 267° West 492 566 36,000  Level FlightAware ADS-B
Sat 09:41:02 AM 64.0220 -9.4200 267° West 492 566 36,000  Level FlightAware ADS-B
Sat 09:41:38 AM 64.0190 -9.5790 268° West 492 566 36,000  Level FlightAware ADS-B
Sat 09:42:31 AM 63.9920 -10.1360 264° West 494 568 36,000  Level FlightAware ADS-B
Sat 09:43:16 AM 63.9770 -10.3680 262° West 493 567 36,000  Level FlightAware ADS-B
Sat 09:43:58 AM 63.9630 -10.5840 262° West 493 567 36,000  Level FlightAware ADS-B
Sat 09:44:42 AM 63.9470 -10.8100 261° West 495 570 36,000  Level FlightAware ADS-B
Sat 09:45:19 AM 63.9350 -10.9870 261° West 495 570 36,000  Level FlightAware ADS-B
Sat 09:46:01 AM 63.9190 -11.2110 261° West 493 567 36,000  Level FlightAware ADS-B
Sat 09:46:47 AM 63.9020 -11.4460 261° West 493 567 36,000  Level FlightAware ADS-B
Sat 09:47:28 AM 63.8870 -11.6550 261° West 493 567 36,000  Level FlightAware ADS-B
Sat 09:48:11 AM 63.8710 -11.8710 261° West 494 568 36,000  Level FlightAware ADS-B
Sat 09:48:53 AM 63.8540 -12.0860 260° West 493 567 36,000  Level FlightAware ADS-B
Sat 09:49:35 AM 63.8380 -12.2960 260° West 492 566 36,000  Level FlightAware ADS-B
Sat 09:50:14 AM 63.8220 -12.4970 260° West 491 565 36,000  Level FlightAware ADS-B
Sat 09:50:59 AM 63.8030 -12.7220 259° West 489 563 36,000  Level FlightAware ADS-B
Sat 09:51:39 AM 63.7870 -12.9220 260° West 487 560 36,000  Level FlightAware ADS-B
Sat 09:52:19 AM 63.7700 -13.1210 259° West 485 558 36,000  Level FlightAware ADS-B
Sat 09:53:01 AM 63.7520 -13.3290 259° West 483 556 36,000  Level FlightAware ADS-B
Sat 09:53:48 AM 63.7310 -13.5610 259° West 482 555 36,000  Level FlightAware ADS-B
Sat 09:54:28 AM 63.7140 -13.7580 259° West 480 552 36,000  Level FlightAware ADS-B
Sat 09:55:10 AM 63.6960 -13.9560 258° West 479 551 36,000  Level FlightAware ADS-B
Sat 09:55:46 AM 63.6790 -14.1370 258° West 480 552 36,000  Level FlightAware ADS-B
Sat 09:56:26 AM 63.6610 -14.3310 258° West 479 551 36,000  Level FlightAware ADS-B
Sat 09:57:09 AM 63.6410 -14.5390 258° West 478 550 36,000  Level FlightAware ADS-B
Sat 09:57:41 AM 63.6260 -14.6950 258° West 478 550 36,000  Level FlightAware ADS-B
Sat 09:58:25 AM 63.6050 -14.9100 258° West 478 550 36,000  Level FlightAware ADS-B
Sat 09:59:09 AM 63.5840 -15.1220 258° West 477 549 36,000  Level FlightAware ADS-B
Sat 09:59:51 AM 63.5640 -15.3170 257° West 478 550 36,000  Level FlightAware ADS-B
Sat 10:00:30 AM 63.5440 -15.5120 257° West 478 550 36,000  Level FlightAware ADS-B
Sat 10:01:14 AM 63.5220 -15.7240 257° West 479 551 36,000  Level FlightAware ADS-B
Sat 10:01:56 AM 63.5010 -15.9280 257° West 480 552 36,000  Level FlightAware ADS-B
Sat 10:02:39 AM 63.4790 -16.1320 257° West 480 552 36,000  Level FlightAware ADS-B
Sat 10:03:19 AM 63.4580 -16.3200 256° West 480 552 36,000  Level FlightAware ADS-B
Sat 10:04:03 AM 63.4340 -16.5380 256° West 479 551 36,000  Level FlightAware ADS-B
Sat 10:04:44 AM 63.4120 -16.7310 256° West 478 550 36,000  Level FlightAware ADS-B
Sat 10:05:26 AM 63.3900 -16.9310 256° West 479 551 36,000  Level FlightAware ADS-B
Sat 10:06:04 AM 63.3690 -17.1130 256° West 478 550 36,000  Level FlightAware ADS-B
Sat 10:06:49 AM 63.3440 -17.3270 255° West 478 550 36,000  Level FlightAware ADS-B
Sat 10:07:30 AM 63.3210 -17.5190 255° West 478 550 36,000  Level FlightAware ADS-B
Sat 10:08:14 AM 63.2960 -17.7290 255° West 476 548 36,000  Level FlightAware ADS-B
Sat 10:08:54 AM 63.2730 -17.9120 254° West 475 547 36,000  Level FlightAware ADS-B
Sat 10:09:31 AM 63.2520 -18.0870 255° West 475 547 36,000  Level FlightAware ADS-B
Sat 10:10:15 AM 63.2260 -18.2960 255° West 476 548 36,000  Level FlightAware ADS-B
Sat 10:10:57 AM 63.2010 -18.4970 255° West 476 548 36,000  Level FlightAware ADS-B
Sat 10:11:28 AM 63.1830 -18.6350 254° West 477 549 36,000  Level FlightAware ADS-B
Sat 10:12:12 AM 63.1640 -18.7840 254° West 476 548 36,000  Level FlightAware ADS-B
Sat 10:12:56 AM 63.1290 -19.0470 254° West 476 548 36,000  Level FlightAware ADS-B
Sat 10:13:36 AM 63.1050 -19.2310 254° West 478 550 36,000  Level FlightAware ADS-B
Sat 10:14:18 AM 63.0790 -19.4290 254° West 479 551 36,000  Level FlightAware ADS-B
Sat 10:15:02 AM 63.0520 -19.6280 253° West 479 551 36,000  Level FlightAware ADS-B
Sat 10:15:42 AM 63.0250 -19.8230 253° West 480 552 36,000  Level FlightAware ADS-B
Sat 10:16:18 AM 63.0030 -19.9860 254° West 481 554 36,000  Level FlightAware ADS-B
Sat 10:16:58 AM 62.9890 -20.1770 261° West 483 556 36,000  Level FlightAware ADS-B
Sat 10:17:42 AM 62.9750 -20.4000 262° West 481 554 36,000  Level FlightAware ADS-B
Sat 10:18:22 AM 62.9630 -20.5890 262° West 479 551 36,000  Level FlightAware ADS-B
Sat 10:19:06 AM 62.9480 -20.8010 261° West 478 550 36,000  Level FlightAware ADS-B
Sat 10:19:44 AM 62.9360 -20.9830 262° West 477 549 36,000  Level FlightAware ADS-B
Sat 10:20:30 AM 62.9210 -21.1990 261° West 475 547 36,000  Level FlightAware ADS-B
Sat 10:21:06 AM 62.9080 -21.3740 261° West 475 547 36,000  Level FlightAware ADS-B
Sat 10:21:52 AM 62.8930 -21.5920 262° West 475 547 36,000  Level FlightAware ADS-B
Sat 10:22:36 AM 62.8770 -21.7970 260° West 477 549 36,000  Level FlightAware ADS-B
Sat 10:23:17 AM 62.8630 -21.9890 261° West 478 550 36,000  Level FlightAware ADS-B
Sat 10:24:00 AM 62.8470 -22.2000 261° West 479 551 36,000  Level FlightAware ADS-B
Sat 10:24:40 AM 62.8320 -22.3880 260° West 480 552 36,000  Level FlightAware ADS-B
Sat 10:25:21 AM 62.8160 -22.5850 260° West 479 551 36,000  Level FlightAware ADS-B
Sat 10:25:57 AM 62.8020 -22.7600 260° West 477 549 36,000  Level FlightAware ADS-B
Sat 10:26:37 AM 62.7860 -22.9460 259° West 477 549 36,000  Level FlightAware ADS-B
Sat 10:27:18 AM 62.7700 -23.1380 260° West 478 550 36,000  Level FlightAware ADS-B
Sat 10:28:05 AM 62.7500 -23.3650 259° West 480 552 36,000  Level FlightAware ADS-B
Sat 10:28:45 AM 62.7340 -23.5560 260° West 481 554 36,000  Level FlightAware ADS-B
Sat 10:29:29 AM 62.7150 -23.7640 259° West 482 555 36,000  Level FlightAware ADS-B
Sat 10:30:09 AM 62.6980 -23.9520 259° West 481 554 36,000  Level FlightAware ADS-B
Sat 10:30:46 AM 62.6820 -24.1260 259° West 481 554 36,000  Level FlightAware ADS-B
Sat 10:31:25 AM 62.6650 -24.3110 259° West 480 552 36,000  Level FlightAware ADS-B
Sat 10:32:05 AM 62.6470 -24.5020 258° West 482 555 36,000  Level FlightAware ADS-B
Sat 10:33:06 AM 62.6200 -24.7820 258° West 480 552 36,000  Level FlightAware ADS-B
Sat 10:33:47 AM 62.6000 -24.9830 258° West 480 552 36,000  Level FlightAware ADS-B
Sat 10:34:30 AM 62.5800 -25.1810 258° West 480 552 36,000  Level FlightAware ADS-B
Sat 10:35:07 AM 62.5620 -25.3550 257° West 480 552 36,000  Level FlightAware ADS-B
Sat 10:35:54 AM 62.5390 -25.5770 257° West 480 552 36,000  Level FlightAware ADS-B
Sat 10:36:34 AM 62.5200 -25.7580 257° West 481 554 36,000  Level FlightAware ADS-B
Sat 10:37:18 AM 62.4980 -25.9670 257° West 481 554 36,000  Level FlightAware ADS-B
Sat 10:37:58 AM 62.4780 -26.1560 257° West 481 554 36,000  Level FlightAware ADS-B
Sat 10:38:39 AM 62.4570 -26.3450 257° West 481 554 36,000  Level FlightAware ADS-B
Sat 10:39:19 AM 62.4360 -26.5350 257° West 482 555 36,000  Level FlightAware ADS-B
Sat 10:39:59 AM 62.4150 -26.7220 256° West 482 555 36,000  Level FlightAware ADS-B
Sat 10:40:37 AM 62.3950 -26.9000 256° West 484 557 36,000  Level FlightAware ADS-B
Sat 10:41:18 AM 62.3730 -27.0850 256° West 485 558 36,000  Level FlightAware ADS-B
Sat 10:41:57 AM 62.3520 -27.2720 256° West 485 558 36,000  Level FlightAware ADS-B
Sat 10:42:40 AM 62.3280 -27.4700 255° West 485 558 36,000  Level FlightAware ADS-B
Sat 10:43:13 AM 62.3100 -27.6240 256° West 483 556 36,000 506 Level FlightAware ADS-B
Sat 10:44:03 AM 62.2820 -27.8510 255° West 475 547 36,700 800 Climbing FlightAware ADS-B
Sat 10:44:43 AM 62.2600 -28.0310 255° West 474 545 37,200 698 Climbing FlightAware ADS-B
Sat 10:45:29 AM 62.2330 -28.2450 255° West 474 545 37,700 545 Climbing FlightAware ADS-B
Sat 10:46:11 AM 62.2090 -28.4360 255° West 477 549 38,000 237 Climbing FlightAware ADS-B
Sat 10:46:45 AM 62.1900 -28.5880 255° West 482 555 38,000  Level FlightAware ADS-B
Sat 10:47:47 AM 62.1550 -28.8540 254° West 477 549 38,000  Level FlightAware ADS-B
Sat 10:48:29 AM 62.1280 -29.0620 255° West 475 547 38,000  Level FlightAware ADS-B
Sat 10:49:07 AM 62.1080 -29.2100 254° West 476 548 38,000  Level FlightAware ADS-B
Sat 10:49:53 AM 62.0780 -29.4380 254° West 475 547 38,000  Level FlightAware ADS-B
Sat 10:50:45 AM 62.0450 -29.6750 254° West 476 548 38,000  Level FlightAware ADS-B
Sat 10:51:31 AM 62.0170 -29.8780 254° West 476 548 38,000  Level FlightAware ADS-B
Sat 10:52:13 AM 61.9900 -30.0480 251° West 476 548 38,000  Level FlightAware ADS-B
Sat 10:52:57 AM 61.9400 -30.2460 242° Southwest 478 550 38,000  Level FlightAware ADS-B
Sat 10:53:36 AM 61.9070 -30.3850 243° Southwest 478 550 38,000  Level FlightAware ADS-B
Sat 10:54:25 AM 61.8650 -30.5590 243° Southwest 478 550 38,000  Level FlightAware ADS-B
Sat 10:55:02 AM 61.8330 -30.6900 243° Southwest 478 550 38,000  Level FlightAware ADS-B
Sat 10:55:48 AM 61.7940 -30.8530 243° Southwest 478 550 38,000  Level FlightAware ADS-B
Sat 10:56:25 AM 61.7620 -30.9840 243° Southwest 478 550 38,000  Level FlightAware ADS-B
Sat 10:57:14 AM 61.7210 -31.1570 243° Southwest 478 550 38,000  Level FlightAware ADS-B
Sat 10:57:50 AM 61.6900 -31.2850 243° Southwest 478 550 38,000  Level FlightAware ADS-B
Sat 10:58:38 AM 61.6490 -31.4540 243° Southwest 478 550 38,000  Level FlightAware ADS-B
Sat 10:59:26 AM 61.6080 -31.6230 243° Southwest 478 550 38,000  Level FlightAware ADS-B
Sat 11:00:03 AM 61.5760 -31.7530 243° Southwest 478 550 38,000  Level FlightAware ADS-B
Sat 11:00:52 AM 61.5340 -31.9260 243° Southwest 478 550 38,000  Level FlightAware ADS-B
Sat 11:01:28 AM 61.5040 -32.0520 244° Southwest 478 550 38,000  Level FlightAware ADS-B
Sat 11:02:17 AM 61.4620 -32.2240 243° Southwest 478 550 38,000  Level FlightAware ADS-B
Sat 11:02:54 AM 61.4300 -32.3540 243° Southwest 478 550 38,000  Level FlightAware ADS-B
Sat 11:05:00 AM 61.3058 -32.8130 241° Southwest  Level FlightAware Approximate
Sat 11:06:00 AM 61.2461 -33.0303 240° Southwest  Level FlightAware Approximate
Sat 11:07:00 AM 61.1861 -33.2467 240° Southwest  Level FlightAware Approximate
Sat 11:08:00 AM 61.1257 -33.4623 240° Southwest  Level FlightAware Approximate
Sat 11:09:00 AM 61.0650 -33.6771 240° Southwest  Level FlightAware Approximate
Sat 11:10:00 AM 61.0040 -33.8911 240° Southwest  Level FlightAware Approximate
Sat 11:11:00 AM 60.9426 -34.1043 239° Southwest  Level FlightAware Approximate
Sat 11:12:00 AM 60.8809 -34.3166 239° Southwest  Level FlightAware Approximate
Sat 11:13:00 AM 60.8188 -34.5281 239° Southwest  Level FlightAware Approximate
Sat 11:14:00 AM 60.7564 -34.7388 239° Southwest  Level FlightAware Approximate
Sat 11:15:00 AM 60.6937 -34.9487 239° Southwest  Level FlightAware Approximate
Sat 11:16:00 AM 60.6307 -35.1577 238° Southwest  Level FlightAware Approximate
Sat 11:17:00 AM 60.5673 -35.3660 238° Southwest  Level FlightAware Approximate
Sat 11:18:00 AM 60.5036 -35.5734 238° Southwest  Level FlightAware Approximate
Sat 11:19:00 AM 60.4396 -35.7800 238° Southwest  Level FlightAware Approximate
Sat 11:20:00 AM 60.3753 -35.9858 238° Southwest  Level FlightAware Approximate
Sat 11:21:00 AM 60.3106 -36.1907 238° Southwest  Level FlightAware Approximate
Sat 11:22:00 AM 60.2457 -36.3949 237° Southwest  Level FlightAware Approximate
Sat 11:23:00 AM 60.1804 -36.5983 237° Southwest  Level FlightAware Approximate
Sat 11:24:00 AM 60.1148 -36.8008 237° Southwest  Level FlightAware Approximate
Sat 11:25:00 AM 60.0489 -37.0025 237° Southwest  Level FlightAware Approximate
Sat 11:26:00 AM 59.9827 -37.2035 237° Southwest  Level FlightAware Approximate
Sat 11:27:00 AM 59.9162 -37.4036 237° Southwest  Level FlightAware Approximate
Sat 11:28:00 AM 59.8494 -37.6029 236° Southwest  Level FlightAware Approximate
Sat 11:29:00 AM 59.7823 -37.8014 236° Southwest  Level FlightAware Approximate
Sat 11:30:00 AM 59.7149 -37.9992 236° Southwest  Level FlightAware Approximate
Sat 11:31:00 AM 59.6472 -38.1961 236° Southwest  Level FlightAware Approximate
Sat 11:32:00 AM 59.5792 -38.3922 236° Southwest  Level FlightAware Approximate
Sat 11:33:00 AM 59.5109 -38.5876 235° Southwest  Level FlightAware Approximate
Sat 11:34:00 AM 59.4424 -38.7821 235° Southwest  Level FlightAware Approximate
Sat 11:35:00 AM 59.3735 -38.9759 235° Southwest  Level FlightAware Approximate
Sat 11:36:00 AM 59.3044 -39.1689 235° Southwest  Level FlightAware Approximate
Sat 11:37:00 AM 59.2349 -39.3610 235° Southwest  Level FlightAware Approximate
Sat 11:38:00 AM 59.1652 -39.5525 235° Southwest  Level FlightAware Approximate
Sat 11:39:00 AM 59.0952 -39.7431 234° Southwest  Level FlightAware Approximate
Sat 11:40:00 AM 59.0250 -39.9329 234° Southwest  Level FlightAware Approximate
Sat 11:41:00 AM 58.9671 -40.1374 245° Southwest  Level FlightAware Approximate
Sat 11:42:00 AM 58.9160 -40.3485 245° Southwest  Level FlightAware Approximate
Sat 11:43:00 AM 58.8647 -40.5590 245° Southwest  Level FlightAware Approximate
Sat 11:44:00 AM 58.8130 -40.7689 245° Southwest  Level FlightAware Approximate
Sat 11:45:00 AM 58.7609 -40.9781 244° Southwest  Level FlightAware Approximate
Sat 11:46:00 AM 58.7086 -41.1867 244° Southwest  Level FlightAware Approximate
Sat 11:47:00 AM 58.6558 -41.3947 244° Southwest  Level FlightAware Approximate
Sat 11:48:00 AM 58.6028 -41.6021 244° Southwest  Level FlightAware Approximate
Sat 11:49:00 AM 58.5494 -41.8088 244° Southwest  Level FlightAware Approximate
Sat 11:50:00 AM 58.4957 -42.0149 244° Southwest  Level FlightAware Approximate
Sat 11:51:00 AM 58.4417 -42.2203 243° Southwest  Level FlightAware Approximate
Sat 11:52:00 AM 58.3873 -42.4252 243° Southwest  Level FlightAware Approximate
Sat 11:53:00 AM 58.3326 -42.6293 243° Southwest  Level FlightAware Approximate
Sat 11:54:00 AM 58.2776 -42.8329 243° Southwest  Level FlightAware Approximate
Sat 11:55:00 AM 58.2222 -43.0358 243° Southwest  Level FlightAware Approximate
Sat 11:56:00 AM 58.1666 -43.2381 243° Southwest  Level FlightAware Approximate
Sat 11:57:00 AM 58.1106 -43.4398 242° Southwest  Level FlightAware Approximate
Sat 11:58:00 AM 58.0543 -43.6408 242° Southwest  Level FlightAware Approximate
Sat 11:59:00 AM 57.9977 -43.8412 242° Southwest  Level FlightAware Approximate
Sat 12:00:00 PM 57.9408 -44.0410 242° Southwest  Level FlightAware Approximate
Sat 12:01:00 PM 57.8835 -44.2401 242° Southwest  Level FlightAware Approximate
Sat 12:02:00 PM 57.8260 -44.4386 241° Southwest  Level FlightAware Approximate
Sat 12:03:00 PM 57.7681 -44.6364 241° Southwest  Level FlightAware Approximate
Sat 12:04:00 PM 57.7099 -44.8336 241° Southwest  Level FlightAware Approximate
Sat 12:05:00 PM 57.6515 -45.0302 241° Southwest  Level FlightAware Approximate
Sat 12:06:00 PM 57.5927 -45.2262 241° Southwest  Level FlightAware Approximate
Sat 12:07:00 PM 57.5336 -45.4215 241° Southwest  Level FlightAware Approximate
Sat 12:08:00 PM 57.4742 -45.6162 240° Southwest  Level FlightAware Approximate
Sat 12:09:00 PM 57.4145 -45.8102 240° Southwest  Level FlightAware Approximate
Sat 12:10:00 PM 57.3546 -46.0037 240° Southwest  Level FlightAware Approximate
Sat 12:11:00 PM 57.2943 -46.1964 240° Southwest  Level FlightAware Approximate
Sat 12:12:00 PM 57.2337 -46.3886 240° Southwest  Level FlightAware Approximate
Sat 12:13:00 PM 57.1729 -46.5801 240° Southwest  Level FlightAware Approximate
Sat 12:14:00 PM 57.1117 -46.7710 240° Southwest  Level FlightAware Approximate
Sat 12:15:00 PM 57.0503 -46.9613 239° Southwest  Level FlightAware Approximate
Sat 12:16:00 PM 56.9885 -47.1509 239° Southwest  Level FlightAware Approximate
Sat 12:17:00 PM 56.9265 -47.3399 239° Southwest  Level FlightAware Approximate
Sat 12:18:00 PM 56.8642 -47.5283 239° Southwest  Level FlightAware Approximate
Sat 12:19:00 PM 56.8017 -47.7160 239° Southwest  Level FlightAware Approximate
Sat 12:20:00 PM 56.7388 -47.9031 239° Southwest  Level FlightAware Approximate
Sat 12:21:00 PM 56.6757 -48.0896 238° Southwest  Level FlightAware Approximate
Sat 12:22:00 PM 56.6122 -48.2755 238° Southwest  Level FlightAware Approximate
Sat 12:23:00 PM 56.5485 -48.4607 238° Southwest  Level FlightAware Approximate
Sat 12:24:00 PM 56.4846 -48.6453 238° Southwest  Level FlightAware Approximate
Sat 12:25:00 PM 56.4203 -48.8293 238° Southwest  Level FlightAware Approximate
Sat 12:26:00 PM 56.3558 -49.0127 238° Southwest  Level FlightAware Approximate
Sat 12:27:00 PM 56.2910 -49.1955 237° Southwest  Level FlightAware Approximate
Sat 12:28:00 PM 56.2260 -49.3776 237° Southwest  Level FlightAware Approximate
Sat 12:29:00 PM 56.1607 -49.5591 237° Southwest  Level FlightAware Approximate
Sat 12:30:00 PM 56.0951 -49.7400 237° Southwest  Level FlightAware Approximate
Sat 12:31:00 PM 56.0293 -49.9203 237° Southwest  Level FlightAware Approximate
Sat 12:32:00 PM 55.9492 -50.0779 221° Southwest  Level FlightAware Approximate
Sat 12:33:00 PM 55.8577 -50.2173 221° Southwest  Level FlightAware Approximate
Sat 12:34:00 PM 55.7661 -50.3560 220° Southwest  Level FlightAware Approximate
Sat 12:35:00 PM 55.6744 -50.4941 220° Southwest  Level FlightAware Approximate
Sat 12:36:00 PM 55.5825 -50.6315 220° Southwest  Level FlightAware Approximate
Sat 12:37:00 PM 55.4904 -50.7683 220° Southwest  Level FlightAware Approximate
Sat 12:38:00 PM 55.3982 -50.9045 220° Southwest  Level FlightAware Approximate
Sat 12:39:00 PM 55.3059 -51.0400 220° Southwest  Level FlightAware Approximate
Sat 12:40:00 PM 55.2134 -51.1749 220° Southwest  Level FlightAware Approximate
Sat 12:41:00 PM 55.1207 -51.3091 220° Southwest  Level FlightAware Approximate
Sat 12:42:00 PM 55.0279 -51.4428 220° Southwest  Level FlightAware Approximate
Sat 12:43:00 PM 54.9350 -51.5758 219° Southwest  Level FlightAware Approximate
Sat 12:44:00 PM 54.8419 -51.7082 219° Southwest  Level FlightAware Approximate
Sat 12:45:00 PM 54.7487 -51.8400 219° Southwest  Level FlightAware Approximate
Sat 12:46:00 PM 54.6553 -51.9712 219° Southwest  Level FlightAware Approximate
Sat 12:47:00 PM 54.5618 -52.1018 219° Southwest  Level FlightAware Approximate
Sat 12:48:00 PM 54.4681 -52.2318 219° Southwest  Level FlightAware Approximate
Sat 12:49:00 PM 54.3743 -52.3612 219° Southwest  Level FlightAware Approximate
Sat 12:50:00 PM 54.2804 -52.4900 219° Southwest  Level FlightAware Approximate
Sat 12:51:00 PM 54.1863 -52.6182 219° Southwest  Level FlightAware Approximate
Sat 12:52:00 PM 54.0921 -52.7458 218° Southwest  Level FlightAware Approximate
Sat 12:53:00 PM 53.9977 -52.8729 218° Southwest  Level FlightAware Approximate
Sat 12:54:00 PM 53.9033 -52.9994 218° Southwest  Level FlightAware Approximate
Sat 12:55:00 PM 53.8087 -53.1253 218° Southwest  Level FlightAware Approximate
Sat 12:56:00 PM 53.7139 -53.2506 218° Southwest  Level FlightAware Approximate
Sat 12:57:00 PM 53.6191 -53.3754 218° Southwest  Level FlightAware Approximate
Sat 12:58:00 PM 53.5241 -53.4996 218° Southwest  Level FlightAware Approximate
Sat 12:59:00 PM 53.4289 -53.6233 218° Southwest  Level FlightAware Approximate
Sat 12:59:05 PM 53.5167 -53.4500 242° Southwest 390 449 38,000  Level Gander Center
Sat 01:00:00 PM 53.3337 -53.7464 218° Southwest  Level FlightAware Approximate
Sat 01:00:05 PM 53.4167 -53.5833 218° Southwest 390 449 38,000  Level Gander Center
Sat 01:01:00 PM 53.2383 -53.8690 218° Southwest  Level FlightAware Approximate
Sat 01:01:05 PM 53.3667 -53.7167 238° Southwest 390 449 38,000  Level Gander Center
Sat 01:02:00 PM 53.1428 -53.9910 217° Southwest  Level FlightAware Approximate
Sat 01:02:05 PM 53.2833 -53.8667 227° Southwest 380 437 38,000  Level Gander Center
Sat 01:03:00 PM 53.0580 -54.1110 242° Southwest  Level FlightAware Approximate
Sat 01:03:05 PM 53.2333 -53.9833 234° Southwest 380 437 38,000  Level Gander Center
Sat 01:04:00 PM 53.0019 -54.2884 242° Southwest  Level FlightAware Approximate
Sat 01:04:05 PM 53.1500 -54.1167 224° Southwest 380 437 38,000  Level Gander Center
Sat 01:05:05 PM 53.0667 -54.2667 227° Southwest 380 437 38,000  Level Gander Center
Sat 01:06:05 PM 53.0167 -54.3833 235° Southwest 380 437 38,000  Level Gander Center
Sat 01:07:05 PM 52.9333 -54.5333 227° Southwest 390 449 38,000  Level Gander Center
Sat 01:08:05 PM 52.8667 -54.6500 227° Southwest 390 449 38,000  Level Gander Center
Sat 01:09:05 PM 52.7833 -54.8000 227° Southwest 390 449 38,000  Level Gander Center
Sat 01:09:36 PM 52.7500 -54.8833 237° Southwest 380 437 38,000  Level Moncton Center
Sat 01:10:36 PM 52.7000 -55.0000 235° Southwest 380 437 38,000  Level Moncton Center
Sat 01:11:36 PM 52.6167 -55.1333 224° Southwest 380 437 38,000  Level Moncton Center
Sat 01:12:36 PM 52.5500 -55.2500 227° Southwest 380 437 38,000  Level Moncton Center
Sat 01:13:36 PM 52.4667 -55.4000 228° Southwest 380 437 38,000  Level Moncton Center
Sat 01:14:13 PM 52.4167 -55.5000 231° Southwest 390 449 38,000  Level Gander Center
Sat 01:15:13 PM 52.3667 -55.6167 235° Southwest 390 449 38,000  Level Gander Center
Sat 01:16:13 PM 52.2833 -55.7333 221° Southwest 400 460 38,000  Level Gander Center
Sat 01:17:05 PM 52.2167 -55.8500 227° Southwest 400 460 38,000  Level Gander Center
Sat 01:17:36 PM 52.1667 -55.9333 226° Southwest 400 460 38,000  Level Moncton Center
Sat 01:18:36 PM 52.1000 -56.0500 227° Southwest 400 460 38,000  Level Moncton Center
Sat 01:19:13 PM 52.0500 -56.1333 226° Southwest 400 460 38,000  Level Gander Center
Sat 01:20:05 PM 51.9833 -56.2500 227° Southwest 400 460 38,000  Level Gander Center
Sat 01:20:36 PM 51.9500 -56.3333 237° Southwest 400 460 38,000  Level Moncton Center
Sat 01:21:36 PM 51.8667 -56.4500 221° Southwest 400 460 38,000  Level Moncton Center
Sat 01:22:36 PM 51.8000 -56.6000 234° Southwest 410 472 38,000  Level Moncton Center
Sat 01:23:13 PM 51.7500 -56.6833 226° Southwest 400 460 38,000  Level Gander Center
Sat 01:24:13 PM 51.6667 -56.8000 221° Southwest 400 460 38,000  Level Gander Center
Sat 01:25:13 PM 51.6000 -56.9500 234° Southwest 420 483 38,000  Level Gander Center
Sat 01:26:13 PM 51.5167 -57.0833 225° Southwest 410 472 38,000  Level Gander Center
Sat 01:27:05 PM 51.4500 -57.2000 228° Southwest 410 472 38,000  Level Gander Center
Sat 01:27:36 PM 51.4000 -57.2500 212° Southwest 410 472 38,000  Level Moncton Center
Sat 01:28:36 PM 51.3333 -57.4000 235° Southwest 420 483 38,000  Level Moncton Center
Sat 01:29:13 PM 51.2833 -57.4833 226° Southwest 410 472 38,000  Level Gander Center
Sat 01:30:13 PM 51.2167 -57.6000 228° Southwest 410 472 38,000  Level Gander Center
Sat 01:31:13 PM 51.1167 -57.7333 220° Southwest 410 472 38,000  Level Gander Center
Sat 01:32:13 PM 51.0333 -57.8833 229° Southwest 420 483 38,000  Level Gander Center
Sat 01:33:13 PM 50.9667 -58.0167 232° Southwest 430 495 38,000  Level Gander Center
Sat 01:39:10 PM 50.4790 -58.8480 232° Southwest 432 497 38,000  Level FlightAware ADS-B
Sat 01:39:47 PM 50.4270 -58.9310 225° Southwest 432 497 38,000  Level FlightAware ADS-B
Sat 01:40:50 PM 50.3350 -59.0750 225° Southwest 432 497 38,000  Level FlightAware ADS-B
Sat 01:41:30 PM 50.2790 -59.1640 225° Southwest 431 496 38,000  Level FlightAware ADS-B
Sat 01:42:10 PM 50.2220 -59.2530 225° Southwest 431 496 38,000  Level FlightAware ADS-B
Sat 01:42:55 PM 50.1650 -59.3430 225° Southwest 432 497 38,000  Level FlightAware ADS-B
Sat 01:43:33 PM 50.1150 -59.4210 225° Southwest 432 497 38,000  Level FlightAware ADS-B
Sat 01:43:58 PM 50.0850 -59.4680 225° Southwest 432 497 38,000  Level FlightAware ADS-B
Sat 01:44:46 PM 50.0270 -59.5580 225° Southwest 432 497 38,000  Level FlightAware ADS-B
Sat 01:45:22 PM 49.9840 -59.6250 225° Southwest 432 497 38,000  Level FlightAware ADS-B
Sat 01:46:12 PM 49.9240 -59.7180 225° Southwest 432 497 38,000  Level FlightAware ADS-B
Sat 01:46:48 PM 49.8800 -59.7860 225° Southwest 432 497 38,000  Level FlightAware ADS-B
Sat 01:47:36 PM 49.8230 -59.8750 225° Southwest 432 497 38,000  Level FlightAware ADS-B
Sat 01:48:19 PM 49.7170 -60.0310 224° Southwest 423 487 38,000  Level FlightAware ADS-B
Sat 01:48:55 PM 49.6740 -60.0960 224° Southwest 423 487 38,000  Level FlightAware ADS-B
Sat 01:49:35 PM 49.6040 -60.2030 225° Southwest 38,000  Level FlightAware ADS-B
Sat 01:50:47 PM 49.5070 -60.3480 224° Southwest 422 486 38,000  Level FlightAware ADS-B
Sat 01:51:21 PM 49.4660 -60.4080 224° Southwest 422 486 38,000  Level FlightAware ADS-B
Sat 01:52:07 PM 49.4120 -60.4900 225° Southwest 422 486 38,000  Level FlightAware ADS-B
Sat 01:52:43 PM 49.3690 -60.5540 224° Southwest 422 486 38,000  Level FlightAware ADS-B
Sat 01:53:21 PM 49.3230 -60.6210 224° Southwest 422 486 38,000  Level FlightAware ADS-B
Sat 01:54:09 PM 49.2660 -60.7060 224° Southwest 422 486 38,000  Level FlightAware ADS-B
Sat 01:54:46 PM 49.2220 -60.7710 224° Southwest 422 486 38,000  Level FlightAware ADS-B
Sat 01:55:34 PM 49.1640 -60.8560 224° Southwest 422 486 38,000  Level FlightAware ADS-B
Sat 01:56:11 PM 49.1200 -60.9210 224° Southwest 422 486 38,000  Level FlightAware ADS-B
Sat 01:57:11 PM 49.0490 -61.0260 224° Southwest 422 486 38,000  Level FlightAware ADS-B
Sat 01:57:47 PM 49.0060 -61.0900 224° Southwest 422 486 38,000  Level FlightAware ADS-B
Sat 01:58:33 PM 48.9510 -61.1700 224° Southwest 422 486 38,000  Level FlightAware ADS-B
Sat 01:59:09 PM 48.9080 -61.2340 224° Southwest 422 486 38,000  Level FlightAware ADS-B
Sat 01:59:58 PM 48.8490 -61.3190 223° Southwest 422 486 38,000  Level FlightAware ADS-B
Sat 02:00:36 PM 48.6500 -61.5500 223° Southwest 420 483 38,000  Level Moncton Center
Sat 02:01:36 PM 48.5667 -61.6833 227° Southwest 420 483 38,000  Level Moncton Center
Sat 02:02:36 PM 48.4667 -61.8167 222° Southwest 420 483 38,000  Level Moncton Center
Sat 02:03:36 PM 48.4000 -61.9333 229° Southwest 410 472 38,000  Level Moncton Center
Sat 02:04:36 PM 48.3000 -62.0500 218° Southwest 420 483 38,000  Level Moncton Center
Sat 02:05:36 PM 48.2333 -62.1667 229° Southwest 420 483 38,000  Level Moncton Center
Sat 02:06:36 PM 48.1333 -62.2833 218° Southwest 420 483 38,000  Level Moncton Center
Sat 02:07:36 PM 48.0500 -62.4167 227° Southwest 430 495 38,000  Level Moncton Center
Sat 02:08:36 PM 47.9667 -62.5167 219° Southwest 430 495 38,000  Level Moncton Center
Sat 02:09:36 PM 47.8667 -62.6500 222° Southwest 430 495 38,000  Level Moncton Center
Sat 02:10:36 PM 47.7833 -62.7833 227° Southwest 440 506 38,000  Level Moncton Center
Sat 02:11:36 PM 47.6833 -62.9000 218° Southwest 430 495 38,000  Level Moncton Center
Sat 02:12:36 PM 47.6000 -63.0000 219° Southwest 430 495 38,000  Level Moncton Center
Sat 02:13:36 PM 47.5167 -63.1333 227° Southwest 430 495 38,000  Level Moncton Center
Sat 02:14:36 PM 47.4333 -63.2667 227° Southwest 440 506 38,000  Level Moncton Center
Sat 02:15:36 PM 47.3500 -63.3833 224° Southwest 440 506 38,000  Level Moncton Center
Sat 02:16:36 PM 47.2500 -63.5167 222° Southwest 440 506 38,000  Level Moncton Center
Sat 02:17:36 PM 47.1667 -63.6167 219° Southwest 440 506 38,000  Level Moncton Center
Sat 02:18:36 PM 47.0667 -63.7333 218° Southwest 440 506 38,000  Level Moncton Center
Sat 02:19:36 PM 46.9667 -63.8500 219° Southwest 440 506 38,000  Level Moncton Center
Sat 02:20:36 PM 46.8833 -63.9833 228° Southwest 440 506 38,000  Level Moncton Center
Sat 02:21:36 PM 46.7833 -64.1000 219° Southwest 440 506 38,000  Level Moncton Center
Sat 02:22:36 PM 46.7000 -64.2333 228° Southwest 440 506 38,000  Level Moncton Center
Sat 02:23:36 PM 46.6000 -64.3167 210° Southwest 440 506 38,000  Level Moncton Center
Sat 02:29:26 PM 46.0920 -65.0000 210° Southwest 426 490 38,000  Level FlightAware ADS-B
Sat 02:30:14 PM 46.0300 -65.0740 220° Southwest 426 490 38,000  Level FlightAware ADS-B
Sat 02:30:36 PM 45.9850 -65.1330 222° Southwest 419 482 38,000  Level FlightAware ADS-B
Sat 02:31:19 PM 45.9230 -65.2090 220° Southwest 421 484 38,000  Level FlightAware ADS-B
Sat 02:32:02 PM 45.8570 -65.2900 221° Southwest 420 483 38,000  Level FlightAware ADS-B
Sat 02:32:46 PM 45.7920 -65.3700 221° Southwest 418 481 38,000  Level FlightAware ADS-B
Sat 02:33:27 PM 45.7310 -65.4450 221° Southwest 421 484 38,000  Level FlightAware ADS-B
Sat 02:34:10 PM 45.6690 -65.5200 220° Southwest 420 483 38,000  Level FlightAware ADS-B
Sat 02:34:38 PM 45.6270 -65.5720 221° Southwest 419 482 38,000  Level FlightAware ADS-B
Sat 02:35:28 PM 45.5530 -65.6610 220° Southwest 415 478 38,000  Level FlightAware ADS-B
Sat 02:36:08 PM 45.4950 -65.7310 220° Southwest 413 475 38,000  Level FlightAware ADS-B
Sat 02:36:50 PM 45.4330 -65.8050 220° Southwest 411 473 38,000  Level FlightAware ADS-B
Sat 02:37:32 PM 45.3730 -65.8770 220° Southwest 410 472 38,000  Level FlightAware ADS-B
Sat 02:38:16 PM 45.3090 -65.9550 221° Southwest 408 470 38,000  Level FlightAware ADS-B
Sat 02:38:56 PM 45.2510 -66.0240 220° Southwest 408 470 38,000  Level FlightAware ADS-B
Sat 02:39:40 PM 45.1880 -66.0990 220° Southwest 407 468 38,000  Level FlightAware ADS-B
Sat 02:40:16 PM 45.1370 -66.1600 220° Southwest 408 470 38,000  Level FlightAware ADS-B
Sat 02:40:42 PM 45.0980 -66.2060 220° Southwest 413 475 38,000  Level FlightAware ADS-B
Sat 02:41:28 PM 45.0320 -66.2840 220° Southwest 418 481 38,000  Level FlightAware ADS-B
Sat 02:42:10 PM 44.9710 -66.3560 220° Southwest 419 482 38,000  Level FlightAware ADS-B
Sat 02:42:54 PM 44.9050 -66.4330 220° Southwest 420 483 38,000  Level FlightAware ADS-B
Sat 02:43:29 PM 44.8530 -66.4950 220° Southwest 422 486 38,000  Level FlightAware ADS-B
Sat 02:44:09 PM 44.7930 -66.5640 219° Southwest 420 483 38,000  Level FlightAware ADS-B
Sat 02:44:49 PM 44.7310 -66.6360 220° Southwest 422 486 38,000  Level FlightAware ADS-B
Sat 02:45:34 PM 44.6630 -66.7160 220° Southwest 420 483 38,000  Level FlightAware ADS-B
Sat 02:46:14 PM 44.6010 -66.7870 219° Southwest 419 482 38,000  Level FlightAware ADS-B
Sat 02:46:59 PM 44.5340 -66.8650 220° Southwest 422 486 38,000  Level FlightAware ADS-B
Sat 02:47:38 PM 44.4740 -66.9330 219° Southwest 422 486 38,000  Level FlightAware ADS-B
Sat 02:48:24 PM 44.4060 -67.0140 220° Southwest 415 478 38,000  Level FlightAware ADS-B
Sat 02:49:04 PM 44.3520 -67.0880 224° Southwest 414 476 38,000  Level FlightAware ADS-B
Sat 02:49:49 PM 44.2890 -67.1760 225° Southwest 416 479 38,000  Level FlightAware ADS-B
Sat 02:50:29 PM 44.2340 -67.2510 224° Southwest 416 479 38,000  Level FlightAware ADS-B
Sat 02:51:09 PM 44.1770 -67.3280 224° Southwest 416 479 38,000  Level FlightAware ADS-B
Sat 02:51:54 PM 44.1160 -67.4120 225° Southwest 415 478 38,000  Level FlightAware ADS-B
Sat 02:52:34 PM 44.0610 -67.4870 224° Southwest 415 478 38,000  Level FlightAware ADS-B
Sat 02:53:14 PM 44.0040 -67.5640 224° Southwest 423 487 38,000  Level FlightAware ADS-B
Sat 02:53:59 PM 43.9410 -67.6480 224° Southwest 425 489 38,000  Level FlightAware ADS-B
Sat 02:54:39 PM 43.8860 -67.7230 225° Southwest 425 489 38,000  Level FlightAware ADS-B
Sat 02:55:24 PM 43.8210 -67.8100 224° Southwest 427 491 38,000  Level FlightAware ADS-B
Sat 02:56:03 PM 43.7650 -67.8840 224° Southwest 427 491 38,000  Level FlightAware ADS-B
Sat 02:56:43 PM 43.7070 -67.9620 224° Southwest 426 490 38,000  Level FlightAware ADS-B
Sat 02:57:30 PM 43.6430 -68.0480 224° Southwest 425 489 38,000  Level FlightAware ADS-B
Sat 02:58:10 PM 43.5860 -68.1230 224° Southwest 423 487 38,000  Level FlightAware ADS-B
Sat 02:58:55 PM 43.5240 -68.2060 224° Southwest 421 484 38,000  Level FlightAware ADS-B
Sat 02:59:35 PM 43.4660 -68.2810 223° Southwest 420 483 38,000  Level FlightAware ADS-B
Sat 03:00:12 PM 43.4260 -68.3340 224° Southwest 420 483 38,000  Level FlightAware ADS-B
Sat 03:00:58 PM 43.3510 -68.4330 224° Southwest 412 474 38,000  Level FlightAware ADS-B
Sat 03:02:37 PM 43.2250 -68.5970 224° Southwest 407 468 38,000  Level FlightAware ADS-B
Sat 03:03:14 PM 43.1730 -68.6660 224° Southwest 407 468 38,000  Level FlightAware ADS-B
Sat 03:04:13 PM 43.0810 -68.7850 223° Southwest 408 470 38,000  Level FlightAware ADS-B
Sat 03:05:13 PM 43.0000 -68.8880 223° Southwest 408 470 38,000  Level FlightAware ADS-B
Sat 03:05:48 PM 42.9480 -68.9550 223° Southwest 407 468 38,000  Level FlightAware ADS-B
Sat 03:06:28 PM 42.8930 -69.0260 223° Southwest 406 467 38,000  Level FlightAware ADS-B
Sat 03:07:08 PM 42.8370 -69.0980 223° Southwest 405 466 38,000  Level FlightAware ADS-B
Sat 03:07:43 PM 42.7880 -69.1600 223° Southwest 404 465 38,000  Level FlightAware ADS-B
Sat 03:08:28 PM 42.7260 -69.2390 223° Southwest 405 466 38,000  Level FlightAware ADS-B
Sat 03:09:08 PM 42.6730 -69.3070 223° Southwest 406 467 38,000  Level FlightAware ADS-B
Sat 03:09:43 PM 42.6280 -69.3640 223° Southwest 407 468 38,000  Level FlightAware ADS-B
Sat 03:10:28 PM 42.5650 -69.4430 223° Southwest 414 476 38,000  Level FlightAware ADS-B
Sat 03:11:18 PM 42.4890 -69.5390 223° Southwest 419 482 38,000  Level FlightAware ADS-B
Sat 03:12:08 PM 42.4190 -69.6280 223° Southwest 418 481 38,000  Level FlightAware ADS-B
Sat 03:12:53 PM 42.3530 -69.7090 222° Southwest 422 486 38,000  Level FlightAware ADS-B
Sat 03:13:33 PM 42.2950 -69.7820 223° Southwest 421 484 38,000  Level FlightAware ADS-B
Sat 03:14:18 PM 42.2290 -69.8640 223° Southwest 418 481 38,000  Level FlightAware ADS-B
Sat 03:14:58 PM 42.1720 -69.9350 223° Southwest 418 481 38,000  Level FlightAware ADS-B
Sat 03:15:38 PM 42.1140 -70.0070 223° Southwest 418 481 38,000  Level FlightAware ADS-B
Sat 03:16:19 PM 42.0550 -70.0800 223° Southwest 419 482 38,000  Level FlightAware ADS-B
Sat 03:16:55 PM 42.0040 -70.1430 223° Southwest 419 482 38,000  Level FlightAware ADS-B
Sat 03:17:39 PM 41.9420 -70.2190 222° Southwest 420 483 38,000  Level FlightAware ADS-B
Sat 03:18:16 PM 41.8920 -70.2900 227° Southwest 417 480 38,000  Level FlightAware ADS-B
Sat 03:18:55 PM 41.8470 -70.3690 233° Southwest 421 484 38,000  Level FlightAware ADS-B
Sat 03:19:35 PM 41.7990 -70.4530 233° Southwest 417 480 38,000  Level FlightAware ADS-B
Sat 03:20:17 PM 41.7510 -70.5360 232° Southwest 417 480 38,000  Level FlightAware ADS-B
Sat 03:20:59 PM 41.7030 -70.6190 232° Southwest 416 479 38,000  Level FlightAware ADS-B
Sat 03:21:38 PM 41.6570 -70.6980 232° Southwest 408 470 38,000  Level FlightAware ADS-B
Sat 03:22:17 PM 41.6150 -70.7690 232° Southwest 407 468 38,000  Level FlightAware ADS-B
Sat 03:23:03 PM 41.5560 -70.8700 232° Southwest 405 466 38,000  Level FlightAware ADS-B
Sat 03:23:43 PM 41.5060 -70.9550 232° Southwest 403 464 38,000  Level FlightAware ADS-B
Sat 03:24:28 PM 41.4530 -71.0440 232° Southwest 401 461 38,000  Level FlightAware ADS-B
Sat 03:25:08 PM 41.4070 -71.1220 232° Southwest 399 459 38,000  Level FlightAware ADS-B
Sat 03:25:43 PM 41.3670 -71.1900 232° Southwest 400 460 38,000  Level FlightAware ADS-B
Sat 03:26:23 PM 41.3210 -71.2670 232° Southwest 401 461 38,000  Level FlightAware ADS-B
Sat 03:27:03 PM 41.2750 -71.3450 232° Southwest 402 463 38,000  Level FlightAware ADS-B
Sat 03:27:46 PM 41.2320 -71.4170 232° Southwest 402 463 38,000  Level FlightAware ADS-B
Sat 03:28:28 PM 41.1780 -71.5060 231° Southwest 410 472 38,000  Level FlightAware ADS-B
Sat 03:29:08 PM 41.1280 -71.5890 231° Southwest 412 474 38,000  Level FlightAware ADS-B
Sat 03:29:57 PM 41.0648 -71.6882 230° Southwest 413 475 38,000  Level FlightAware ADS-B
Sat 03:30:35 PM 41.0135 -71.7563 225° Southwest 412 474 38,000  Level FlightAware ADS-B
Sat 03:31:11 PM 40.9650 -71.8209 225° Southwest 414 476 38,000  Level FlightAware ADS-B
Sat 03:31:41 PM 40.9242 -71.8753 225° Southwest 415 478 38,000  Level FlightAware ADS-B
Sat 03:32:11 PM 40.8835 -71.9294 225° Southwest 416 479 38,000  Level FlightAware ADS-B
Sat 03:32:49 PM 40.8328 -71.9967 225° Southwest 417 480 38,000  Level FlightAware ADS-B
Sat 03:33:56 PM 40.7414 -72.1175 225° Southwest 418 481 38,000  Level FlightAware ADS-B
Sat 03:34:27 PM 40.6991 -72.1732 225° Southwest 419 482 38,000  Level FlightAware ADS-B
Sat 03:34:57 PM 40.6575 -72.2280 225° Southwest 421 484 38,000  Level FlightAware ADS-B
Sat 03:36:06 PM 40.5640 -72.3510 225° Southwest 420 483 38,000  Level FlightAware ADS-B
Sat 03:36:31 PM 40.5281 -72.3977 225° Southwest 421 484 38,000  Level FlightAware ADS-B
Sat 03:37:09 PM 40.4754 -72.4664 225° Southwest 421 484 38,000  Level FlightAware ADS-B
Sat 03:37:40 PM 40.4328 -72.5220 225° Southwest 422 486 38,000  Level FlightAware ADS-B
Sat 03:38:11 PM 40.3950 -72.5720 225° Southwest 422 486 38,000  Level FlightAware ADS-B
Sat 03:38:27 PM 40.3677 -72.6066 224° Southwest 423 487 38,000  Level FlightAware ADS-B
Sat 03:38:59 PM 40.3236 -72.6638 225° Southwest 418 481 38,000  Level FlightAware ADS-B
Sat 03:39:29 PM 40.2824 -72.7172 225° Southwest 417 480 38,000  Level FlightAware ADS-B
Sat 03:40:00 PM 40.2411 -72.7704 225° Southwest 418 481 38,000  Level FlightAware ADS-B
Sat 03:40:31 PM 40.1985 -72.8254 225° Southwest 419 482 38,000  Level FlightAware ADS-B
Sat 03:41:03 PM 40.1531 -72.8838 225° Southwest 421 484 38,000  Level FlightAware ADS-B
Sat 03:41:35 PM 40.1087 -72.9409 225° Southwest 422 486 38,000  Level FlightAware ADS-B
Sat 03:42:06 PM 40.0663 -72.9952 224° Southwest 421 484 38,000  Level FlightAware ADS-B
Sat 03:42:37 PM 40.0237 -73.0498 224° Southwest 422 486 38,000  Level FlightAware ADS-B
Sat 03:43:11 PM 39.9761 -73.1105 224° Southwest 423 487 38,000  Level FlightAware ADS-B
Sat 03:43:44 PM 39.9296 -73.1697 224° Southwest 424 488 38,000  Level FlightAware ADS-B
Sat 03:44:14 PM 39.8872 -73.2237 224° Southwest 423 487 38,000  Level FlightAware ADS-B
Sat 03:44:48 PM 39.8391 -73.2848 224° Southwest 425 489 38,000  Level FlightAware ADS-B
Sat 03:45:24 PM 39.7887 -73.3487 224° Southwest 426 490 38,000  Level FlightAware ADS-B
Sat 03:45:56 PM 39.7438 -73.4054 224° Southwest 426 490 38,000  Level FlightAware ADS-B
Sat 03:46:29 PM 39.6979 -73.4634 224° Southwest 426 490 38,000  Level FlightAware ADS-B
Sat 03:47:03 PM 39.6491 -73.5247 224° Southwest 424 488 38,000  Level FlightAware ADS-B
Sat 03:47:34 PM 39.6070 -73.5776 224° Southwest 421 484 38,000  Level FlightAware ADS-B
Sat 03:48:09 PM 39.5580 -73.6393 224° Southwest 420 483 38,000  Level FlightAware ADS-B
Sat 03:48:39 PM 39.5158 -73.6921 224° Southwest 419 482 38,000  Level FlightAware ADS-B
Sat 03:49:11 PM 39.4707 -73.7485 224° Southwest 419 482 38,000  Level FlightAware ADS-B
Sat 03:49:42 PM 39.4279 -73.8018 224° Southwest 419 482 38,000  Level FlightAware ADS-B
Sat 03:50:13 PM 39.3845 -73.8560 224° Southwest 420 483 38,000  Level FlightAware ADS-B
Sat 03:50:44 PM 39.3410 -73.9100 224° Southwest 420 483 38,000  Level FlightAware ADS-B
Sat 03:51:15 PM 39.2983 -73.9629 224° Southwest 419 482 38,000  Level FlightAware ADS-B
Sat 03:51:45 PM 39.2561 -74.0153 224° Southwest 419 482 38,000  Level FlightAware ADS-B
Sat 03:52:17 PM 39.2121 -74.0698 224° Southwest 417 480 38,000  Level FlightAware ADS-B
Sat 03:52:32 PM 39.1903 -74.0963 223° Southwest 417 480 38,000  Level FlightAware ADS-B
Sat 03:52:44 PM 39.1737 -74.1135 219° Southwest 417 480 38,000  Level FlightAware ADS-B
Sat 03:53:14 PM 39.1246 -74.1545 213° Southwest 417 480 38,000  Level FlightAware ADS-B
Sat 03:53:44 PM 39.0752 -74.1959 213° Southwest 416 479 38,000  Level FlightAware ADS-B
Sat 03:54:18 PM 39.0211 -74.2413 213° Southwest 414 476 38,000  Level FlightAware ADS-B
Sat 03:54:48 PM 38.9726 -74.2817 213° Southwest 413 475 38,000  Level FlightAware ADS-B
Sat 03:55:19 PM 38.9236 -74.3227 213° Southwest 412 474 38,000  Level FlightAware ADS-B
Sat 03:55:49 PM 38.8751 -74.3630 213° Southwest 414 476 38,000  Level FlightAware ADS-B
Sat 03:56:21 PM 38.8245 -74.4052 213° Southwest 414 476 38,000  Level FlightAware ADS-B
Sat 03:57:05 PM 38.7541 -74.4637 213° Southwest 415 478 38,000  Level FlightAware ADS-B
Sat 03:57:39 PM 38.6994 -74.5091 213° Southwest 416 479 38,000  Level FlightAware ADS-B
Sat 03:58:09 PM 38.6510 -74.5491 213° Southwest 417 480 38,000  Level FlightAware ADS-B
Sat 03:59:10 PM 38.5515 -74.6313 213° Southwest 417 480 38,000  Level FlightAware ADS-B
Sat 03:59:42 PM 38.4997 -74.6741 213° Southwest 414 476 38,000  Level FlightAware ADS-B
Sat 04:00:13 PM 38.4508 -74.7143 213° Southwest 412 474 38,000  Level FlightAware ADS-B
Sat 04:00:43 PM 38.4060 -74.7510 213° Southwest 406 467 38,000  Level FlightAware ADS-B
Sat 04:01:26 PM 38.3344 -74.8099 213° Southwest 412 474 38,000  Level FlightAware ADS-B
Sat 04:01:56 PM 38.2855 -74.8498 213° Southwest 415 478 38,000  Level FlightAware ADS-B
Sat 04:02:27 PM 38.2349 -74.8912 213° Southwest 415 478 38,000  Level FlightAware ADS-B
Sat 04:02:59 PM 38.1827 -74.9337 213° Southwest 414 476 38,000  Level FlightAware ADS-B
Sat 04:03:34 PM 38.1370 -74.9710 213° Southwest 406 467 38,000  Level FlightAware ADS-B
Sat 04:03:52 PM 38.0979 -75.0026 212° Southwest 413 475 38,000  Level FlightAware ADS-B
Sat 04:04:24 PM 38.0466 -75.0443 213° Southwest 415 478 38,000  Level FlightAware ADS-B
Sat 04:04:55 PM 37.9962 -75.0852 213° Southwest 416 479 38,000  Level FlightAware ADS-B
Sat 04:05:25 PM 37.9474 -75.1246 212° Southwest 417 480 38,000  Level FlightAware ADS-B
Sat 04:05:55 PM 37.8981 -75.1644 213° Southwest 418 481 38,000  Level FlightAware ADS-B
Sat 04:06:28 PM 37.8444 -75.2077 212° Southwest 416 479 38,000  Level FlightAware ADS-B
Sat 04:07:36 PM 37.7358 -75.2951 212° Southwest 415 478 38,000  Level FlightAware ADS-B
Sat 04:08:06 PM 37.6866 -75.3346 212° Southwest 414 476 38,000  Level FlightAware ADS-B
Sat 04:08:40 PM 37.6326 -75.3779 212° Southwest 414 476 38,000  Level FlightAware ADS-B
Sat 04:09:10 PM 37.5833 -75.4173 212° Southwest 414 476 38,000  Level FlightAware ADS-B
Sat 04:09:40 PM 37.5346 -75.4561 212° Southwest 415 478 38,000  Level FlightAware ADS-B
Sat 04:10:11 PM 37.4848 -75.4958 212° Southwest 414 476 38,000  Level FlightAware ADS-B
Sat 04:10:43 PM 37.4339 -75.5364 212° Southwest 414 476 38,000  Level FlightAware ADS-B
Sat 04:11:38 PM 37.3480 -75.6050 212° Southwest 416 479 38,000  Level FlightAware ADS-B
Sat 04:12:30 PM 37.2660 -75.6690 212° Southwest 417 480 38,000  Level FlightAware ADS-B
Sat 04:12:39 PM 37.2447 -75.6863 213° Southwest 418 481 38,000  Level FlightAware ADS-B
Sat 04:13:09 PM 37.1948 -75.7258 212° Southwest 418 481 38,000  Level FlightAware ADS-B
Sat 04:13:40 PM 37.1443 -75.7656 212° Southwest 418 481 38,000  Level FlightAware ADS-B
Sat 04:14:10 PM 37.0952 -75.8042 212° Southwest 419 482 38,000  Level FlightAware ADS-B
Sat 04:14:43 PM 37.0422 -75.8458 212° Southwest 421 484 38,000  Level FlightAware ADS-B
Sat 04:15:16 PM 36.9862 -75.8898 212° Southwest 420 483 38,000  Level FlightAware ADS-B
Sat 04:15:47 PM 36.9367 -75.9286 212° Southwest 418 481 38,000  Level FlightAware ADS-B
Sat 04:16:18 PM 36.8847 -75.9692 212° Southwest 418 481 38,000  Level FlightAware ADS-B
Sat 04:16:58 PM 36.8202 -76.0195 212° Southwest 417 480 38,000  Level FlightAware ADS-B
Sat 04:17:28 PM 36.7701 -76.0586 212° Southwest 416 479 38,000  Level FlightAware ADS-B
Sat 04:18:16 PM 36.6920 -76.1194 212° Southwest 416 479 38,000  Level FlightAware ADS-B
Sat 04:18:56 PM 36.6410 -76.1590 212° Southwest 417 480 38,000  Level FlightAware ADS-B
Sat 04:19:26 PM 36.5850 -76.2020 212° Southwest 413 475 38,000  Level FlightAware ADS-B
Sat 04:19:53 PM 36.5370 -76.2400 212° Southwest 412 474 38,000  Level FlightAware ADS-B
Sat 04:20:43 PM 36.4640 -76.2950 211° Southwest 412 474 38,000  Level FlightAware ADS-B
Sat 04:21:19 PM 36.4140 -76.3320 211° Southwest 412 474 38,000  Level FlightAware ADS-B
Sat 04:22:05 PM 36.3240 -76.4040 213° Southwest 416 479 38,000  Level FlightAware ADS-B
Sat 04:22:44 PM 36.2690 -76.4440 210° Southwest 416 479 38,000  Level FlightAware ADS-B
Sat 04:23:32 PM 36.2020 -76.4950 212° Southwest 416 479 38,000  Level FlightAware ADS-B
Sat 04:24:24 PM 36.0956 -76.5739 212° Southwest 416 479 38,000  Level Washington Center
Sat 04:25:25 PM 35.9969 -76.6522 213° Southwest 416 479 38,000  Level Washington Center
Sat 04:26:23 PM 35.8983 -76.7281 212° Southwest 416 479 38,000  Level Washington Center
Sat 04:27:23 PM 35.7994 -76.8033 212° Southwest 421 484 38,000  Level Washington Center
Sat 04:28:24 PM 35.7006 -76.8733 210° Southwest 421 484 38,000  Level Washington Center
Sat 04:29:24 PM 35.6144 -76.9386 212° Southwest 416 479 38,000  Level Washington Center
Sat 04:30:25 PM 35.5175 -77.0133 212° Southwest 411 473 38,000  Level Washington Center
Sat 04:31:23 PM 35.4186 -77.0881 212° Southwest 411 473 38,000  Level Washington Center
Sat 04:32:24 PM 35.3194 -77.1628 212° Southwest 411 473 38,000  Level Washington Center
Sat 04:33:25 PM 35.2206 -77.2319 210° Southwest 411 473 38,000  Level Washington Center
Sat 04:34:23 PM 35.1236 -77.3061 212° Southwest 411 473 38,000  Level Washington Center
Sat 04:35:25 PM 35.0244 -77.3803 211° Southwest 411 473 38,000  Level Washington Center
Sat 04:36:23 PM 34.9231 -77.4539 211° Southwest 416 479 38,000  Level Washington Center
Sat 04:37:24 PM 34.8175 -77.5375 213° Southwest 416 479 38,000  Level Washington Center
Sat 04:38:24 PM 34.7181 -77.6108 211° Southwest 421 484 38,000  Level Washington Center
Sat 04:39:24 PM 34.6189 -77.6842 211° Southwest 421 484 38,000  Level Washington Center
Sat 04:44:39 PM 34.0450 -77.9630 211° Southwest 424 488 38,000  Level FlightAware ADS-B
Sat 04:45:19 PM 33.9760 -77.9830 194° South 424 488 38,000  Level FlightAware ADS-B
Sat 04:46:02 PM 33.9000 -78.0050 194° South 424 488 38,000  Level FlightAware ADS-B
Sat 04:46:39 PM 33.8230 -78.0280 194° South 427 491 38,000  Level FlightAware ADS-B
Sat 04:47:24 PM 33.7280 -78.0550 193° South 427 491 38,000  Level FlightAware ADS-B
Sat 04:48:05 PM 33.6600 -78.0740 193° South 427 491 38,000  Level FlightAware ADS-B
Sat 04:48:53 PM 33.5810 -78.0960 193° South 427 491 38,000  Level FlightAware ADS-B
Sat 04:50:09 PM 33.4730 -78.1280 194° South 426 490 38,000  Level FlightAware ADS-B
Sat 04:50:57 PM 33.3940 -78.1500 193° South 426 490 38,000  Level FlightAware ADS-B
Sat 04:51:39 PM 33.2380 -78.1950 194° South 425 489 38,000  Level FlightAware ADS-B
Sat 04:52:15 PM 33.1710 -78.2140 193° South 426 490 38,000  Level FlightAware ADS-B
Sat 04:53:04 PM 33.0780 -78.2400 193° South 427 491 38,000  Level FlightAware ADS-B
Sat 04:53:39 PM 33.0070 -78.2600 193° South 427 491 38,000  Level FlightAware ADS-B
Sat 04:54:24 PM 32.9200 -78.2850 194° South 426 490 38,000  Level FlightAware ADS-B
Sat 04:55:09 PM 32.8340 -78.3090 193° South 426 490 38,000  Level FlightAware ADS-B
Sat 04:55:39 PM 32.7770 -78.3250 193° South 427 491 38,000  Level FlightAware ADS-B
Sat 04:56:24 PM 32.6910 -78.3490 193° South 426 490 38,000  Level FlightAware ADS-B
Sat 04:57:09 PM 32.6080 -78.3730 194° South 426 490 38,000  Level FlightAware ADS-B
Sat 04:57:39 PM 32.5490 -78.3890 193° South 427 491 38,000  Level FlightAware ADS-B
Sat 04:58:37 PM 32.4440 -78.4180 193° South 427 491 38,000  Level FlightAware ADS-B
Sat 04:59:49 PM 32.4490 -78.4180 360° North 425 489 38,000  Level FlightAware ADS-B
Sat 05:00:50 PM 32.1870 -78.4920 193° South 425 489 38,000  Level FlightAware ADS-B
Sat 05:01:29 PM 32.1040 -78.5170 194° South 428 493 38,000  Level FlightAware ADS-B
Sat 05:02:06 PM 32.0440 -78.5340 194° South 428 493 38,000  Level FlightAware ADS-B
Sat 05:02:54 PM 31.9650 -78.5550 193° South 428 493 38,000  Level FlightAware ADS-B
Sat 05:03:30 PM 31.9060 -78.5710 193° South 428 493 38,000  Level FlightAware ADS-B
Sat 05:04:18 PM 31.8270 -78.5920 193° South 428 493 38,000  Level FlightAware ADS-B
Sat 05:04:54 PM 31.7680 -78.6090 194° South 428 493 38,000  Level FlightAware ADS-B
Sat 05:06:22 PM 31.5556 -78.6750 194° South 427 491 38,000  Level Jacksonville Center
Sat 05:07:22 PM 31.4358 -78.7097 194° South 432 497 38,000  Level Jacksonville Center
Sat 05:08:22 PM 31.3200 -78.7417 193° South 432 497 38,000  Level Jacksonville Center
Sat 05:09:22 PM 31.2022 -78.7783 195° South 432 497 38,000  Level Jacksonville Center
Sat 05:10:22 PM 31.0883 -78.8075 192° South 432 497 38,000  Level Jacksonville Center
Sat 05:11:22 PM 30.9725 -78.8442 195° South 431 496 38,000  Level Jacksonville Center
Sat 05:12:22 PM 30.8525 -78.8758 193° South 431 496 38,000  Level Jacksonville Center
Sat 05:13:22 PM 30.7344 -78.9075 193° South 431 496 38,000  Level Jacksonville Center
Sat 05:15:06 PM 30.5231 -78.9694 194° South 401 461 38,000  Level Miami Center
Sat 05:16:06 PM 30.4019 -79.0006 192° South 426 490 38,000  Level Miami Center
Sat 05:17:06 PM 30.2883 -79.0536 202° Southwest 438 504 38,000  Level Miami Center
Sat 05:18:06 PM 30.1750 -79.1039 201° Southwest 444 511 38,000  Level Miami Center
Sat 05:19:06 PM 30.0575 -79.1542 200° South 444 511 38,000  Level Miami Center
Sat 05:20:06 PM 29.9461 -79.2094 203° Southwest 449 517 38,000  Level Miami Center
Sat 05:21:06 PM 29.8286 -79.2522 198° South 449 517 38,000  Level Miami Center
Sat 05:22:06 PM 29.7172 -79.3069 203° Southwest 449 517 38,000  Level Miami Center
Sat 05:23:06 PM 29.5997 -79.3569 200° South 449 517 38,000  Level Miami Center
Sat 05:24:06 PM 29.4819 -79.4042 199° South 454 522 38,000  Level Miami Center
Sat 05:25:06 PM 29.3622 -79.4514 199° South 454 522 38,000  Level Miami Center
Sat 05:26:06 PM 29.2486 -79.5036 202° Southwest 449 517 38,000  Level Miami Center
Sat 05:27:06 PM 29.1289 -79.5528 200° South 454 522 38,000  Level Miami Center
Sat 05:28:06 PM 29.0114 -79.5856 194° South 449 517 38,000  Level Miami Center
Sat 05:29:06 PM 28.8858 -79.6086 189° South 443 510 38,000  Level Miami Center
Sat 05:30:06 PM 28.7622 -79.6292 188° South 450 518 38,000  Level Miami Center
Sat 05:36:01 PM 28.0340 -79.8090 188° South 448 516 38,000  Level FlightAware ADS-B
Sat 05:36:37 PM 27.9620 -79.8380 200° South 448 516 38,000  Level FlightAware ADS-B
Sat 05:37:33 PM 27.8570 -79.8790 199° South 448 516 38,000  Level FlightAware ADS-B
Sat 05:38:18 PM 27.7690 -79.9150 200° South 444 511 38,000  Level FlightAware ADS-B
Sat 05:39:05 PM 27.6800 -79.9500 199° South 443 510 38,000  Level FlightAware ADS-B
Sat 05:39:45 PM 27.6050 -79.9800 200° South 444 511 38,000  Level FlightAware ADS-B
Sat 05:41:08 PM 27.4290 -80.0490 199° South 444 511 38,000  Level FlightAware ADS-B
Sat 05:41:53 PM 27.3440 -80.0830 200° South 444 511 38,000  Level FlightAware ADS-B
Sat 05:42:31 PM 27.2840 -80.1060 199° South 38,000  Level FlightAware ADS-B
Sat 05:43:28 PM 27.1520 -80.1590 200° South 448 516 38,000  Level FlightAware ADS-B
Sat 05:44:08 PM 27.0730 -80.1900 199° South 447 514 38,000  Level FlightAware ADS-B
Sat 05:44:43 PM 27.0060 -80.2160 199° South 446 513 38,000  Level FlightAware ADS-B
Sat 05:45:27 PM 26.9140 -80.2520 199° South 451 519 38,000  Level FlightAware ADS-B
Sat 05:46:06 PM 26.8370 -80.2820 199° South 450 518 38,000  Level FlightAware ADS-B
Sat 05:46:42 PM 26.7690 -80.3080 199° South 451 519 38,000  Level FlightAware ADS-B
Sat 05:47:26 PM 26.6800 -80.3430 199° South 449 517 38,000  Level FlightAware ADS-B
Sat 05:48:06 PM 26.6050 -80.3720 199° South 447 514 38,000  Level FlightAware ADS-B
Sat 05:48:46 PM 26.5240 -80.4040 199° South 446 513 38,000  Level FlightAware ADS-B
Sat 05:49:26 PM 26.4440 -80.4350 199° South 446 513 38,000  Level FlightAware ADS-B
Sat 05:50:06 PM 26.3670 -80.4640 199° South 445 512 38,000  Level FlightAware ADS-B
Sat 05:50:46 PM 26.2930 -80.4930 199° South 450 518 38,000  Level FlightAware ADS-B
Sat 05:51:23 PM 26.2180 -80.5220 199° South 444 511 38,000  Level FlightAware ADS-B
Sat 05:52:03 PM 26.1390 -80.5520 199° South 446 513 38,000  Level FlightAware ADS-B
Sat 05:52:43 PM 26.0580 -80.5840 200° South 446 513 38,000 -225 Level FlightAware ADS-B
Sat 05:53:23 PM 25.9790 -80.6140 199° South 447 514 37,700 -675 Descending FlightAware ADS-B
Sat 05:54:03 PM 25.9040 -80.6430 199° South 446 513 37,100 -907 Descending FlightAware ADS-B
Sat 05:54:49 PM 25.8080 -80.6800 199° South 458 527 36,400 -776 Descending FlightAware ADS-B
Sat 05:55:28 PM 25.7300 -80.7090 199° South 461 531 36,000 -286 Descending FlightAware ADS-B
Sat 05:56:13 PM 25.6400 -80.7440 199° South 462 532 36,000  Level FlightAware ADS-B
Sat 05:56:53 PM 25.5630 -80.7890 208° Southwest 458 527 36,000  Level FlightAware ADS-B
Sat 05:57:28 PM 25.5100 -80.8490 226° Southwest 468 539 36,000  Level FlightAware ADS-B
Sat 05:58:08 PM 25.4490 -80.9180 226° Southwest 460 529 36,000  Level FlightAware ADS-B
Sat 05:58:53 PM 25.3840 -80.9910 225° Southwest 458 527 36,000  Level FlightAware ADS-B
Sat 05:59:34 PM 25.3240 -81.0590 226° Southwest 461 531 36,000  Level FlightAware ADS-B
Sat 06:00:19 PM 25.2550 -81.1360 225° Southwest 463 533 36,000  Level FlightAware ADS-B
Sat 06:00:58 PM 25.1970 -81.2010 225° Southwest 465 535 36,000  Level FlightAware ADS-B
Sat 06:01:38 PM 25.1350 -81.2700 225° Southwest 461 531 36,000  Level FlightAware ADS-B
Sat 06:02:21 PM 25.0700 -81.3430 225° Southwest 460 529 36,000  Level FlightAware ADS-B
Sat 06:03:01 PM 25.0080 -81.4120 225° Southwest 459 528 36,000 -300 Level FlightAware ADS-B
Sat 06:03:41 PM 24.9500 -81.4760 225° Southwest 463 533 35,600 -776 Descending FlightAware ADS-B
Sat 06:04:26 PM 24.8810 -81.5530 225° Southwest 453 521 34,900 -1,000 Descending FlightAware ADS-B
Sat 06:05:11 PM 24.8180 -81.6230 225° Southwest 454 522 34,100 -1,535 Descending FlightAware ADS-B
Sat 06:05:52 PM 24.7550 -81.6920 225° Southwest 453 521 32,700 -1,976 Descending FlightAware ADS-B
Sat 06:06:36 PM 24.6880 -81.7670 225° Southwest 442 509 31,300 -1,786 Descending FlightAware ADS-B
Sat 06:07:16 PM 24.6300 -81.8310 225° Southwest 439 505 30,200 -1,178 Descending FlightAware ADS-B
Sat 06:08:23 PM 24.5390 -81.9300 225° Southwest 434 499 29,200 -991 Descending FlightAware ADS-B
Sat 06:09:11 PM 24.4660 -82.0100 225° Southwest 432 497 28,300 -1,084 Descending FlightAware ADS-B
Sat 06:09:46 PM 24.4170 -82.0640 225° Southwest 429 494 27,700 -955 Descending FlightAware ADS-B
Sat 06:10:39 PM 24.3510 -82.1370 225° Southwest 415 478 26,900 -720 Descending FlightAware ADS-B
Sat 06:11:51 PM 24.2610 -82.2350 225° Southwest 396 456 26,200 -350 Descending FlightAware ADS-B
Sat 06:12:39 PM 24.2090 -82.2930 225° Southwest 396 456 26,200  Level FlightAware ADS-B
Sat 06:13:15 PM 24.1690 -82.3360 224° Southwest 396 456 26,200 -1,837 Level FlightAware ADS-B
Sat 06:14:17 PM 24.0630 -82.4490 224° Southwest 389 448 23,200 -1,837 Descending FlightAware ADS-B
Sat 06:14:53 PM 24.0240 -82.4910 225° Southwest 389 448 23,200  Level FlightAware ADS-B
Sat 06:15:42 PM 23.9700 -82.5480 224° Southwest 389 448 23,200  Level FlightAware ADS-B
Sat 06:16:19 PM 23.9290 -82.5910 224° Southwest 389 448 23,200  Level FlightAware ADS-B
Sat 06:16:55 PM 23.8900 -82.6320 224° Southwest 389 448 23,200  Level FlightAware ADS-B
Sat 06:17:43 PM 23.8370 -82.6880 224° Southwest 389 448 23,200  Level FlightAware ADS-B
Sat 06:23:00 PM 23.2291 -82.4877 163° South  Level Estimated
Sat 06:24:00 PM 23.1141 -82.4499 163° South  Level Estimated
Sat 06:25:00 PM 22.9990 -82.4123 163° South  Level Estimated
Sat 06:26:00 PM 22.9891 -82.4091 163° South  Level Estimated
Sat 06:27:00 PM 22.9891 -82.4091 51° Northeast  Level Estimated
Sat 06:28:00 PM 22.9891 -82.4091 51° Northeast  Level Estimated
Sat 06:29:00 PM 22.9891 -82.4091 51° Northeast  Level Estimated
Sat 06:30:00 PM 22.9891 -82.4091 51° Northeast  Level Estimated
Sat 06:31:00 PM 22.9891 -82.4091 51° Northeast  Level Estimated
Sat 06:32:00 PM 22.9891 -82.4091 51° Northeast  Level Estimated
Sat 06:33:00 PM 22.9891 -82.4091 51° Northeast  Level Estimated
Sat 06:34:00 PM 22.9891 -82.4091 51° Northeast  Level Estimated
Sat 06:35:00 PM 22.9891 -82.4091 51° Northeast  Level Estimated
Sat 06:36:00 PM 22.9891 -82.4091 51° Northeast  Level Estimated
Sat 06:37:00 PM 22.9891 -82.4091 51° Northeast  Level Estimated
Sat 06:38:00 PM 22.9891 -82.4091 51° Northeast  Level Estimated
Sat 06:39:00 PM 22.9891 -82.4091 51° Northeast  Level Estimated

Login

Don't have an account? Register now (free) for customized features, flight alerts, and more!